<?xml version="1.0" encoding="UTF-8" standalone="no" ?>
<gpx xmlns="http://www.topografix.com/GPX/1/1" xmlns:xsi="http://www.w3.org/2001/XMLSchema-instance" xsi:schemaLocation="http://www.topografix.com/GPX/1/1 http://www.topografix.com/GPX/1/1/gpx.xsd" version="1.1" creator="VisuGPX - https://www.visugpx.com">
  <metadata>
    <name>Sainte Victoire </name>
    <desc><![CDATA[grp_trc:[nouvelles]]]></desc>
  </metadata>
  <trk>
    <name><![CDATA[9 août 2022 à 09:34:40]]></name>
    <cmt><![CDATA[9 août 2022 à 09:34:40]]></cmt>
    <trkseg>
      <trkpt lat="45.45825" lon="6.39637">
        <ele>1611</ele>
        <time>2022-08-09T07:34:41Z</time>
      </trkpt>
      <trkpt lat="45.45828" lon="6.39635">
        <ele>1611</ele>
        <time>2022-08-09T07:34:42Z</time>
      </trkpt>
      <trkpt lat="45.45831" lon="6.39637">
        <ele>1611</ele>
        <time>2022-08-09T07:34:46Z</time>
      </trkpt>
      <trkpt lat="45.45831" lon="6.39637">
        <ele>1611</ele>
        <time>2022-08-09T07:34:47Z</time>
      </trkpt>
      <trkpt lat="45.45833" lon="6.3963">
        <ele>1611</ele>
        <time>2022-08-09T07:35:10Z</time>
      </trkpt>
      <trkpt lat="45.45835" lon="6.39621">
        <ele>1614</ele>
        <time>2022-08-09T07:35:26Z</time>
      </trkpt>
      <trkpt lat="45.45835" lon="6.39615">
        <ele>1615</ele>
        <time>2022-08-09T07:35:36Z</time>
      </trkpt>
      <trkpt lat="45.45839" lon="6.39599">
        <ele>1618</ele>
        <time>2022-08-09T07:36:01Z</time>
      </trkpt>
      <trkpt lat="45.4584" lon="6.39593">
        <ele>1620</ele>
        <time>2022-08-09T07:36:16Z</time>
      </trkpt>
      <trkpt lat="45.45844" lon="6.39577">
        <ele>1624</ele>
        <time>2022-08-09T07:36:46Z</time>
      </trkpt>
      <trkpt lat="45.45845" lon="6.3957">
        <ele>1626</ele>
        <time>2022-08-09T07:36:58Z</time>
      </trkpt>
      <trkpt lat="45.45845" lon="6.39563">
        <ele>1627</ele>
        <time>2022-08-09T07:37:08Z</time>
      </trkpt>
      <trkpt lat="45.45847" lon="6.39555">
        <ele>1629</ele>
        <time>2022-08-09T07:37:23Z</time>
      </trkpt>
      <trkpt lat="45.45848" lon="6.39549">
        <ele>1631</ele>
        <time>2022-08-09T07:37:38Z</time>
      </trkpt>
      <trkpt lat="45.45852" lon="6.39535">
        <ele>1635</ele>
        <time>2022-08-09T07:38:08Z</time>
      </trkpt>
      <trkpt lat="45.45853" lon="6.39528">
        <ele>1637</ele>
        <time>2022-08-09T07:38:23Z</time>
      </trkpt>
      <trkpt lat="45.45856" lon="6.39524">
        <ele>1638</ele>
        <time>2022-08-09T07:38:33Z</time>
      </trkpt>
      <trkpt lat="45.45859" lon="6.3951">
        <ele>1642</ele>
        <time>2022-08-09T07:39:04Z</time>
      </trkpt>
      <trkpt lat="45.4586" lon="6.39503">
        <ele>1644</ele>
        <time>2022-08-09T07:39:19Z</time>
      </trkpt>
      <trkpt lat="45.45862" lon="6.39497">
        <ele>1646</ele>
        <time>2022-08-09T07:39:39Z</time>
      </trkpt>
      <trkpt lat="45.45863" lon="6.3949">
        <ele>1647</ele>
        <time>2022-08-09T07:40:19Z</time>
      </trkpt>
      <trkpt lat="45.45864" lon="6.39484">
        <ele>1649</ele>
        <time>2022-08-09T07:40:29Z</time>
      </trkpt>
      <trkpt lat="45.45866" lon="6.39476">
        <ele>1651</ele>
        <time>2022-08-09T07:40:44Z</time>
      </trkpt>
      <trkpt lat="45.45866" lon="6.3947">
        <ele>1652</ele>
        <time>2022-08-09T07:40:59Z</time>
      </trkpt>
      <trkpt lat="45.45866" lon="6.39464">
        <ele>1654</ele>
        <time>2022-08-09T07:41:09Z</time>
      </trkpt>
      <trkpt lat="45.4587" lon="6.39451">
        <ele>1657</ele>
        <time>2022-08-09T07:41:35Z</time>
      </trkpt>
      <trkpt lat="45.45872" lon="6.39439">
        <ele>1660</ele>
        <time>2022-08-09T07:42:05Z</time>
      </trkpt>
      <trkpt lat="45.45873" lon="6.39432">
        <ele>1662</ele>
        <time>2022-08-09T07:42:20Z</time>
      </trkpt>
      <trkpt lat="45.45873" lon="6.39416">
        <ele>1666</ele>
        <time>2022-08-09T07:42:50Z</time>
      </trkpt>
      <trkpt lat="45.45874" lon="6.39409">
        <ele>1668</ele>
        <time>2022-08-09T07:43:05Z</time>
      </trkpt>
      <trkpt lat="45.45877" lon="6.39402">
        <ele>1670</ele>
        <time>2022-08-09T07:43:20Z</time>
      </trkpt>
      <trkpt lat="45.45879" lon="6.39396">
        <ele>1671</ele>
        <time>2022-08-09T07:43:36Z</time>
      </trkpt>
      <trkpt lat="45.4588" lon="6.39381">
        <ele>1675</ele>
        <time>2022-08-09T07:44:21Z</time>
      </trkpt>
      <trkpt lat="45.4588" lon="6.39374">
        <ele>1677</ele>
        <time>2022-08-09T07:44:36Z</time>
      </trkpt>
      <trkpt lat="45.45883" lon="6.39367">
        <ele>1679</ele>
        <time>2022-08-09T07:44:51Z</time>
      </trkpt>
      <trkpt lat="45.45886" lon="6.39361">
        <ele>1681</ele>
        <time>2022-08-09T07:45:06Z</time>
      </trkpt>
      <trkpt lat="45.45888" lon="6.39354">
        <ele>1683</ele>
        <time>2022-08-09T07:45:22Z</time>
      </trkpt>
      <trkpt lat="45.4589" lon="6.39344">
        <ele>1684</ele>
        <time>2022-08-09T07:45:38Z</time>
      </trkpt>
      <trkpt lat="45.4589" lon="6.39337">
        <ele>1685</ele>
        <time>2022-08-09T07:45:48Z</time>
      </trkpt>
      <trkpt lat="45.45886" lon="6.39314">
        <ele>1689</ele>
        <time>2022-08-09T07:46:23Z</time>
      </trkpt>
      <trkpt lat="45.45884" lon="6.39307">
        <ele>1690</ele>
        <time>2022-08-09T07:46:38Z</time>
      </trkpt>
      <trkpt lat="45.45882" lon="6.39301">
        <ele>1691</ele>
        <time>2022-08-09T07:46:48Z</time>
      </trkpt>
      <trkpt lat="45.45878" lon="6.39294">
        <ele>1692</ele>
        <time>2022-08-09T07:47:03Z</time>
      </trkpt>
      <trkpt lat="45.4587" lon="6.39284">
        <ele>1694</ele>
        <time>2022-08-09T07:47:24Z</time>
      </trkpt>
      <trkpt lat="45.45864" lon="6.39269">
        <ele>1697</ele>
        <time>2022-08-09T07:47:54Z</time>
      </trkpt>
      <trkpt lat="45.45859" lon="6.39259">
        <ele>1698</ele>
        <time>2022-08-09T07:48:06Z</time>
      </trkpt>
      <trkpt lat="45.45858" lon="6.3925">
        <ele>1699</ele>
        <time>2022-08-09T07:48:22Z</time>
      </trkpt>
      <trkpt lat="45.45857" lon="6.39243">
        <ele>1699</ele>
        <time>2022-08-09T07:48:32Z</time>
      </trkpt>
      <trkpt lat="45.45855" lon="6.3922">
        <ele>1702</ele>
        <time>2022-08-09T07:49:02Z</time>
      </trkpt>
      <trkpt lat="45.45855" lon="6.39214">
        <ele>1703</ele>
        <time>2022-08-09T07:49:12Z</time>
      </trkpt>
      <trkpt lat="45.45855" lon="6.39204">
        <ele>1704</ele>
        <time>2022-08-09T07:49:28Z</time>
      </trkpt>
      <trkpt lat="45.45854" lon="6.3919">
        <ele>1706</ele>
        <time>2022-08-09T07:49:48Z</time>
      </trkpt>
      <trkpt lat="45.45854" lon="6.39183">
        <ele>1707</ele>
        <time>2022-08-09T07:49:58Z</time>
      </trkpt>
      <trkpt lat="45.45853" lon="6.39175">
        <ele>1708</ele>
        <time>2022-08-09T07:50:08Z</time>
      </trkpt>
      <trkpt lat="45.45854" lon="6.39168">
        <ele>1708</ele>
        <time>2022-08-09T07:50:18Z</time>
      </trkpt>
      <trkpt lat="45.45853" lon="6.39162">
        <ele>1710</ele>
        <time>2022-08-09T07:50:28Z</time>
      </trkpt>
      <trkpt lat="45.45854" lon="6.39154">
        <ele>1711</ele>
        <time>2022-08-09T07:50:43Z</time>
      </trkpt>
      <trkpt lat="45.45852" lon="6.39147">
        <ele>1711</ele>
        <time>2022-08-09T07:51:23Z</time>
      </trkpt>
      <trkpt lat="45.45851" lon="6.39137">
        <ele>1711</ele>
        <time>2022-08-09T07:51:33Z</time>
      </trkpt>
      <trkpt lat="45.45852" lon="6.39126">
        <ele>1713</ele>
        <time>2022-08-09T07:51:47Z</time>
      </trkpt>
      <trkpt lat="45.45853" lon="6.3912">
        <ele>1713</ele>
        <time>2022-08-09T07:52:18Z</time>
      </trkpt>
      <trkpt lat="45.45853" lon="6.39124">
        <ele>1713</ele>
        <time>2022-08-09T07:52:45Z</time>
      </trkpt>
      <trkpt lat="45.45852" lon="6.3913">
        <ele>1713</ele>
        <time>2022-08-09T07:52:55Z</time>
      </trkpt>
      <trkpt lat="45.4585" lon="6.39136">
        <ele>1713</ele>
        <time>2022-08-09T07:53:05Z</time>
      </trkpt>
      <trkpt lat="45.45852" lon="6.39142">
        <ele>1711</ele>
        <time>2022-08-09T07:53:25Z</time>
      </trkpt>
      <trkpt lat="45.45855" lon="6.39147">
        <ele>1711</ele>
        <time>2022-08-09T07:54:10Z</time>
      </trkpt>
      <trkpt lat="45.4586" lon="6.39147">
        <ele>1713</ele>
        <time>2022-08-09T07:55:05Z</time>
      </trkpt>
      <trkpt lat="45.45865" lon="6.39145">
        <ele>1714</ele>
        <time>2022-08-09T07:55:21Z</time>
      </trkpt>
      <trkpt lat="45.4587" lon="6.39141">
        <ele>1716</ele>
        <time>2022-08-09T07:55:36Z</time>
      </trkpt>
      <trkpt lat="45.45877" lon="6.39131">
        <ele>1720</ele>
        <time>2022-08-09T07:56:17Z</time>
      </trkpt>
      <trkpt lat="45.45886" lon="6.39126">
        <ele>1725</ele>
        <time>2022-08-09T07:56:57Z</time>
      </trkpt>
      <trkpt lat="45.4589" lon="6.39122">
        <ele>1727</ele>
        <time>2022-08-09T07:57:17Z</time>
      </trkpt>
      <trkpt lat="45.45897" lon="6.39113">
        <ele>1731</ele>
        <time>2022-08-09T07:57:52Z</time>
      </trkpt>
      <trkpt lat="45.45904" lon="6.39103">
        <ele>1735</ele>
        <time>2022-08-09T07:58:28Z</time>
      </trkpt>
      <trkpt lat="45.45911" lon="6.39092">
        <ele>1739</ele>
        <time>2022-08-09T07:58:58Z</time>
      </trkpt>
      <trkpt lat="45.45918" lon="6.3907">
        <ele>1743</ele>
        <time>2022-08-09T07:59:38Z</time>
      </trkpt>
      <trkpt lat="45.4592" lon="6.39064">
        <ele>1745</ele>
        <time>2022-08-09T07:59:48Z</time>
      </trkpt>
      <trkpt lat="45.45921" lon="6.39057">
        <ele>1745</ele>
        <time>2022-08-09T07:59:59Z</time>
      </trkpt>
      <trkpt lat="45.45923" lon="6.39051">
        <ele>1746</ele>
        <time>2022-08-09T08:00:10Z</time>
      </trkpt>
      <trkpt lat="45.45924" lon="6.39043">
        <ele>1748</ele>
        <time>2022-08-09T08:00:26Z</time>
      </trkpt>
      <trkpt lat="45.45926" lon="6.39036">
        <ele>1750</ele>
        <time>2022-08-09T08:00:41Z</time>
      </trkpt>
      <trkpt lat="45.45928" lon="6.39021">
        <ele>1752</ele>
        <time>2022-08-09T08:01:11Z</time>
      </trkpt>
      <trkpt lat="45.4593" lon="6.39015">
        <ele>1753</ele>
        <time>2022-08-09T08:01:21Z</time>
      </trkpt>
      <trkpt lat="45.4593" lon="6.39">
        <ele>1756</ele>
        <time>2022-08-09T08:01:46Z</time>
      </trkpt>
      <trkpt lat="45.45938" lon="6.38989">
        <ele>1761</ele>
        <time>2022-08-09T08:02:29Z</time>
      </trkpt>
      <trkpt lat="45.45948" lon="6.38982">
        <ele>1765</ele>
        <time>2022-08-09T08:03:04Z</time>
      </trkpt>
      <trkpt lat="45.45954" lon="6.3898">
        <ele>1767</ele>
        <time>2022-08-09T08:03:19Z</time>
      </trkpt>
      <trkpt lat="45.45967" lon="6.38965">
        <ele>1771</ele>
        <time>2022-08-09T08:03:59Z</time>
      </trkpt>
      <trkpt lat="45.45977" lon="6.38964">
        <ele>1775</ele>
        <time>2022-08-09T08:04:38Z</time>
      </trkpt>
      <trkpt lat="45.45984" lon="6.38964">
        <ele>1778</ele>
        <time>2022-08-09T08:04:58Z</time>
      </trkpt>
      <trkpt lat="45.45988" lon="6.38963">
        <ele>1780</ele>
        <time>2022-08-09T08:05:13Z</time>
      </trkpt>
      <trkpt lat="45.45992" lon="6.38961">
        <ele>1781</ele>
        <time>2022-08-09T08:05:28Z</time>
      </trkpt>
      <trkpt lat="45.45997" lon="6.38958">
        <ele>1783</ele>
        <time>2022-08-09T08:05:43Z</time>
      </trkpt>
      <trkpt lat="45.46001" lon="6.38956">
        <ele>1785</ele>
        <time>2022-08-09T08:05:58Z</time>
      </trkpt>
      <trkpt lat="45.4601" lon="6.38945">
        <ele>1789</ele>
        <time>2022-08-09T08:06:36Z</time>
      </trkpt>
      <trkpt lat="45.46015" lon="6.38942">
        <ele>1790</ele>
        <time>2022-08-09T08:06:51Z</time>
      </trkpt>
      <trkpt lat="45.46022" lon="6.38934">
        <ele>1793</ele>
        <time>2022-08-09T08:07:26Z</time>
      </trkpt>
      <trkpt lat="45.46027" lon="6.38929">
        <ele>1795</ele>
        <time>2022-08-09T08:07:41Z</time>
      </trkpt>
      <trkpt lat="45.46032" lon="6.38925">
        <ele>1797</ele>
        <time>2022-08-09T08:07:56Z</time>
      </trkpt>
      <trkpt lat="45.46046" lon="6.38913">
        <ele>1802</ele>
        <time>2022-08-09T08:08:40Z</time>
      </trkpt>
      <trkpt lat="45.46052" lon="6.38913">
        <ele>1804</ele>
        <time>2022-08-09T08:08:55Z</time>
      </trkpt>
      <trkpt lat="45.46063" lon="6.3891">
        <ele>1808</ele>
        <time>2022-08-09T08:09:25Z</time>
      </trkpt>
      <trkpt lat="45.46067" lon="6.38912">
        <ele>1809</ele>
        <time>2022-08-09T08:09:35Z</time>
      </trkpt>
      <trkpt lat="45.46072" lon="6.38912">
        <ele>1810</ele>
        <time>2022-08-09T08:09:50Z</time>
      </trkpt>
      <trkpt lat="45.46078" lon="6.38909">
        <ele>1812</ele>
        <time>2022-08-09T08:10:05Z</time>
      </trkpt>
      <trkpt lat="45.46082" lon="6.38912">
        <ele>1813</ele>
        <time>2022-08-09T08:10:20Z</time>
      </trkpt>
      <trkpt lat="45.46092" lon="6.38909">
        <ele>1817</ele>
        <time>2022-08-09T08:10:47Z</time>
      </trkpt>
      <trkpt lat="45.46097" lon="6.38905">
        <ele>1819</ele>
        <time>2022-08-09T08:11:02Z</time>
      </trkpt>
      <trkpt lat="45.46101" lon="6.38903">
        <ele>1820</ele>
        <time>2022-08-09T08:11:17Z</time>
      </trkpt>
      <trkpt lat="45.46111" lon="6.389">
        <ele>1824</ele>
        <time>2022-08-09T08:11:47Z</time>
      </trkpt>
      <trkpt lat="45.46116" lon="6.38896">
        <ele>1826</ele>
        <time>2022-08-09T08:12:02Z</time>
      </trkpt>
      <trkpt lat="45.46121" lon="6.38892">
        <ele>1827</ele>
        <time>2022-08-09T08:12:17Z</time>
      </trkpt>
      <trkpt lat="45.4613" lon="6.38883">
        <ele>1831</ele>
        <time>2022-08-09T08:12:44Z</time>
      </trkpt>
      <trkpt lat="45.46139" lon="6.38881">
        <ele>1835</ele>
        <time>2022-08-09T08:13:05Z</time>
      </trkpt>
      <trkpt lat="45.46143" lon="6.38881">
        <ele>1837</ele>
        <time>2022-08-09T08:13:20Z</time>
      </trkpt>
      <trkpt lat="45.46154" lon="6.38877">
        <ele>1840</ele>
        <time>2022-08-09T08:14:11Z</time>
      </trkpt>
      <trkpt lat="45.46164" lon="6.38873">
        <ele>1844</ele>
        <time>2022-08-09T08:14:42Z</time>
      </trkpt>
      <trkpt lat="45.46174" lon="6.3887">
        <ele>1849</ele>
        <time>2022-08-09T08:15:14Z</time>
      </trkpt>
      <trkpt lat="45.46184" lon="6.38863">
        <ele>1852</ele>
        <time>2022-08-09T08:15:44Z</time>
      </trkpt>
      <trkpt lat="45.46194" lon="6.38859">
        <ele>1857</ele>
        <time>2022-08-09T08:16:14Z</time>
      </trkpt>
      <trkpt lat="45.46197" lon="6.38855">
        <ele>1859</ele>
        <time>2022-08-09T08:16:29Z</time>
      </trkpt>
      <trkpt lat="45.46201" lon="6.38852">
        <ele>1861</ele>
        <time>2022-08-09T08:16:44Z</time>
      </trkpt>
      <trkpt lat="45.46211" lon="6.38846">
        <ele>1864</ele>
        <time>2022-08-09T08:17:17Z</time>
      </trkpt>
      <trkpt lat="45.4622" lon="6.38843">
        <ele>1868</ele>
        <time>2022-08-09T08:17:52Z</time>
      </trkpt>
      <trkpt lat="45.46224" lon="6.38841">
        <ele>1870</ele>
        <time>2022-08-09T08:18:12Z</time>
      </trkpt>
      <trkpt lat="45.46233" lon="6.38833">
        <ele>1874</ele>
        <time>2022-08-09T08:18:53Z</time>
      </trkpt>
      <trkpt lat="45.46237" lon="6.38829">
        <ele>1876</ele>
        <time>2022-08-09T08:19:35Z</time>
      </trkpt>
      <trkpt lat="45.4624" lon="6.38826">
        <ele>1878</ele>
        <time>2022-08-09T08:20:00Z</time>
      </trkpt>
      <trkpt lat="45.46249" lon="6.38817">
        <ele>1881</ele>
        <time>2022-08-09T08:20:40Z</time>
      </trkpt>
      <trkpt lat="45.46251" lon="6.38813">
        <ele>1883</ele>
        <time>2022-08-09T08:20:55Z</time>
      </trkpt>
      <trkpt lat="45.46256" lon="6.38813">
        <ele>1885</ele>
        <time>2022-08-09T08:21:32Z</time>
      </trkpt>
      <trkpt lat="45.46261" lon="6.38814">
        <ele>1887</ele>
        <time>2022-08-09T08:22:12Z</time>
      </trkpt>
      <trkpt lat="45.46264" lon="6.38808">
        <ele>1889</ele>
        <time>2022-08-09T08:22:37Z</time>
      </trkpt>
      <trkpt lat="45.46267" lon="6.38804">
        <ele>1890</ele>
        <time>2022-08-09T08:23:45Z</time>
      </trkpt>
      <trkpt lat="45.46268" lon="6.38794">
        <ele>1891</ele>
        <time>2022-08-09T08:24:10Z</time>
      </trkpt>
      <trkpt lat="45.46267" lon="6.38787">
        <ele>1892</ele>
        <time>2022-08-09T08:24:20Z</time>
      </trkpt>
      <trkpt lat="45.46267" lon="6.38781">
        <ele>1893</ele>
        <time>2022-08-09T08:24:30Z</time>
      </trkpt>
      <trkpt lat="45.46264" lon="6.38774">
        <ele>1894</ele>
        <time>2022-08-09T08:24:45Z</time>
      </trkpt>
      <trkpt lat="45.46263" lon="6.38766">
        <ele>1896</ele>
        <time>2022-08-09T08:25:22Z</time>
      </trkpt>
      <trkpt lat="45.4626" lon="6.38759">
        <ele>1898</ele>
        <time>2022-08-09T08:25:38Z</time>
      </trkpt>
      <trkpt lat="45.46261" lon="6.38745">
        <ele>1900</ele>
        <time>2022-08-09T08:25:58Z</time>
      </trkpt>
      <trkpt lat="45.46263" lon="6.38738">
        <ele>1902</ele>
        <time>2022-08-09T08:26:08Z</time>
      </trkpt>
      <trkpt lat="45.46259" lon="6.38716">
        <ele>1907</ele>
        <time>2022-08-09T08:26:48Z</time>
      </trkpt>
      <trkpt lat="45.4626" lon="6.38706">
        <ele>1908</ele>
        <time>2022-08-09T08:27:03Z</time>
      </trkpt>
      <trkpt lat="45.46258" lon="6.38698">
        <ele>1909</ele>
        <time>2022-08-09T08:27:13Z</time>
      </trkpt>
      <trkpt lat="45.46261" lon="6.38692">
        <ele>1910</ele>
        <time>2022-08-09T08:27:24Z</time>
      </trkpt>
      <trkpt lat="45.46264" lon="6.38684">
        <ele>1913</ele>
        <time>2022-08-09T08:27:45Z</time>
      </trkpt>
      <trkpt lat="45.46267" lon="6.38676">
        <ele>1915</ele>
        <time>2022-08-09T08:28:00Z</time>
      </trkpt>
      <trkpt lat="45.46268" lon="6.3867">
        <ele>1917</ele>
        <time>2022-08-09T08:28:10Z</time>
      </trkpt>
      <trkpt lat="45.46272" lon="6.38657">
        <ele>1920</ele>
        <time>2022-08-09T08:28:40Z</time>
      </trkpt>
      <trkpt lat="45.46273" lon="6.3865">
        <ele>1920</ele>
        <time>2022-08-09T08:28:50Z</time>
      </trkpt>
      <trkpt lat="45.46276" lon="6.38642">
        <ele>1922</ele>
        <time>2022-08-09T08:29:10Z</time>
      </trkpt>
      <trkpt lat="45.46276" lon="6.38634">
        <ele>1924</ele>
        <time>2022-08-09T08:29:20Z</time>
      </trkpt>
      <trkpt lat="45.46283" lon="6.38614">
        <ele>1929</ele>
        <time>2022-08-09T08:29:58Z</time>
      </trkpt>
      <trkpt lat="45.46286" lon="6.38605">
        <ele>1930</ele>
        <time>2022-08-09T08:30:53Z</time>
      </trkpt>
      <trkpt lat="45.46289" lon="6.38599">
        <ele>1931</ele>
        <time>2022-08-09T08:31:03Z</time>
      </trkpt>
      <trkpt lat="45.46296" lon="6.38578">
        <ele>1935</ele>
        <time>2022-08-09T08:31:40Z</time>
      </trkpt>
      <trkpt lat="45.46299" lon="6.38571">
        <ele>1936</ele>
        <time>2022-08-09T08:31:51Z</time>
      </trkpt>
      <trkpt lat="45.46299" lon="6.38562">
        <ele>1938</ele>
        <time>2022-08-09T08:32:06Z</time>
      </trkpt>
      <trkpt lat="45.46304" lon="6.38548">
        <ele>1940</ele>
        <time>2022-08-09T08:32:41Z</time>
      </trkpt>
      <trkpt lat="45.46309" lon="6.38528">
        <ele>1944</ele>
        <time>2022-08-09T08:33:16Z</time>
      </trkpt>
      <trkpt lat="45.46312" lon="6.38523">
        <ele>1946</ele>
        <time>2022-08-09T08:33:31Z</time>
      </trkpt>
      <trkpt lat="45.46316" lon="6.38517">
        <ele>1948</ele>
        <time>2022-08-09T08:33:49Z</time>
      </trkpt>
      <trkpt lat="45.46317" lon="6.38509">
        <ele>1950</ele>
        <time>2022-08-09T08:34:04Z</time>
      </trkpt>
      <trkpt lat="45.46324" lon="6.3849">
        <ele>1954</ele>
        <time>2022-08-09T08:34:39Z</time>
      </trkpt>
      <trkpt lat="45.46331" lon="6.38479">
        <ele>1957</ele>
        <time>2022-08-09T08:35:09Z</time>
      </trkpt>
      <trkpt lat="45.46333" lon="6.38473">
        <ele>1959</ele>
        <time>2022-08-09T08:36:03Z</time>
      </trkpt>
      <trkpt lat="45.46335" lon="6.38468">
        <ele>1960</ele>
        <time>2022-08-09T08:36:13Z</time>
      </trkpt>
      <trkpt lat="45.46338" lon="6.38454">
        <ele>1962</ele>
        <time>2022-08-09T08:36:38Z</time>
      </trkpt>
      <trkpt lat="45.46342" lon="6.38441">
        <ele>1966</ele>
        <time>2022-08-09T08:37:08Z</time>
      </trkpt>
      <trkpt lat="45.46344" lon="6.38433">
        <ele>1968</ele>
        <time>2022-08-09T08:37:43Z</time>
      </trkpt>
      <trkpt lat="45.4635" lon="6.38422">
        <ele>1972</ele>
        <time>2022-08-09T08:38:41Z</time>
      </trkpt>
      <trkpt lat="45.46354" lon="6.38419">
        <ele>1975</ele>
        <time>2022-08-09T08:39:36Z</time>
      </trkpt>
      <trkpt lat="45.46362" lon="6.38411">
        <ele>1979</ele>
        <time>2022-08-09T08:40:10Z</time>
      </trkpt>
      <trkpt lat="45.46365" lon="6.38406">
        <ele>1981</ele>
        <time>2022-08-09T08:40:25Z</time>
      </trkpt>
      <trkpt lat="45.46368" lon="6.38402">
        <ele>1983</ele>
        <time>2022-08-09T08:40:45Z</time>
      </trkpt>
      <trkpt lat="45.46371" lon="6.38398">
        <ele>1986</ele>
        <time>2022-08-09T08:41:10Z</time>
      </trkpt>
      <trkpt lat="45.46376" lon="6.38396">
        <ele>1988</ele>
        <time>2022-08-09T08:41:40Z</time>
      </trkpt>
      <trkpt lat="45.46377" lon="6.3839">
        <ele>1990</ele>
        <time>2022-08-09T08:41:55Z</time>
      </trkpt>
      <trkpt lat="45.46382" lon="6.38386">
        <ele>1993</ele>
        <time>2022-08-09T08:42:18Z</time>
      </trkpt>
      <trkpt lat="45.46382" lon="6.38378">
        <ele>1995</ele>
        <time>2022-08-09T08:42:33Z</time>
      </trkpt>
      <trkpt lat="45.46379" lon="6.38373">
        <ele>1996</ele>
        <time>2022-08-09T08:42:43Z</time>
      </trkpt>
      <trkpt lat="45.46376" lon="6.38368">
        <ele>1996</ele>
        <time>2022-08-09T08:42:53Z</time>
      </trkpt>
      <trkpt lat="45.46373" lon="6.38364">
        <ele>1997</ele>
        <time>2022-08-09T08:43:18Z</time>
      </trkpt>
      <trkpt lat="45.46375" lon="6.38358">
        <ele>1999</ele>
        <time>2022-08-09T08:44:22Z</time>
      </trkpt>
      <trkpt lat="45.46376" lon="6.38352">
        <ele>2001</ele>
        <time>2022-08-09T08:44:52Z</time>
      </trkpt>
      <trkpt lat="45.46376" lon="6.38346">
        <ele>2002</ele>
        <time>2022-08-09T08:45:17Z</time>
      </trkpt>
      <trkpt lat="45.46378" lon="6.38339">
        <ele>2005</ele>
        <time>2022-08-09T08:46:07Z</time>
      </trkpt>
      <trkpt lat="45.4638" lon="6.38326">
        <ele>2009</ele>
        <time>2022-08-09T08:47:04Z</time>
      </trkpt>
      <trkpt lat="45.46383" lon="6.3832">
        <ele>2011</ele>
        <time>2022-08-09T08:47:29Z</time>
      </trkpt>
      <trkpt lat="45.46383" lon="6.38303">
        <ele>2014</ele>
        <time>2022-08-09T08:47:59Z</time>
      </trkpt>
      <trkpt lat="45.46382" lon="6.38296">
        <ele>2016</ele>
        <time>2022-08-09T08:48:09Z</time>
      </trkpt>
      <trkpt lat="45.46384" lon="6.38289">
        <ele>2017</ele>
        <time>2022-08-09T08:48:20Z</time>
      </trkpt>
      <trkpt lat="45.46381" lon="6.38275">
        <ele>2020</ele>
        <time>2022-08-09T08:48:47Z</time>
      </trkpt>
      <trkpt lat="45.46379" lon="6.38267">
        <ele>2022</ele>
        <time>2022-08-09T08:49:17Z</time>
      </trkpt>
      <trkpt lat="45.46381" lon="6.38252">
        <ele>2025</ele>
        <time>2022-08-09T08:49:42Z</time>
      </trkpt>
      <trkpt lat="45.46382" lon="6.38245">
        <ele>2027</ele>
        <time>2022-08-09T08:49:57Z</time>
      </trkpt>
      <trkpt lat="45.46382" lon="6.38237">
        <ele>2028</ele>
        <time>2022-08-09T08:50:07Z</time>
      </trkpt>
      <trkpt lat="45.46383" lon="6.3822">
        <ele>2031</ele>
        <time>2022-08-09T08:51:10Z</time>
      </trkpt>
      <trkpt lat="45.46385" lon="6.38212">
        <ele>2033</ele>
        <time>2022-08-09T08:51:25Z</time>
      </trkpt>
      <trkpt lat="45.46387" lon="6.38206">
        <ele>2034</ele>
        <time>2022-08-09T08:51:40Z</time>
      </trkpt>
      <trkpt lat="45.46389" lon="6.38199">
        <ele>2037</ele>
        <time>2022-08-09T08:52:20Z</time>
      </trkpt>
      <trkpt lat="45.4639" lon="6.38192">
        <ele>2039</ele>
        <time>2022-08-09T08:52:42Z</time>
      </trkpt>
      <trkpt lat="45.46391" lon="6.38186">
        <ele>2040</ele>
        <time>2022-08-09T08:52:58Z</time>
      </trkpt>
      <trkpt lat="45.46393" lon="6.3818">
        <ele>2042</ele>
        <time>2022-08-09T08:53:13Z</time>
      </trkpt>
      <trkpt lat="45.46392" lon="6.38174">
        <ele>2043</ele>
        <time>2022-08-09T08:53:28Z</time>
      </trkpt>
      <trkpt lat="45.46391" lon="6.38167">
        <ele>2045</ele>
        <time>2022-08-09T08:53:43Z</time>
      </trkpt>
      <trkpt lat="45.46396" lon="6.38162">
        <ele>2048</ele>
        <time>2022-08-09T08:54:13Z</time>
      </trkpt>
      <trkpt lat="45.464" lon="6.38161">
        <ele>2050</ele>
        <time>2022-08-09T08:55:02Z</time>
      </trkpt>
      <trkpt lat="45.46403" lon="6.38155">
        <ele>2052</ele>
        <time>2022-08-09T08:55:22Z</time>
      </trkpt>
      <trkpt lat="45.46403" lon="6.38149">
        <ele>2053</ele>
        <time>2022-08-09T08:55:32Z</time>
      </trkpt>
      <trkpt lat="45.46403" lon="6.38142">
        <ele>2055</ele>
        <time>2022-08-09T08:55:47Z</time>
      </trkpt>
      <trkpt lat="45.46402" lon="6.38136">
        <ele>2057</ele>
        <time>2022-08-09T08:56:22Z</time>
      </trkpt>
      <trkpt lat="45.46405" lon="6.38122">
        <ele>2060</ele>
        <time>2022-08-09T08:57:05Z</time>
      </trkpt>
      <trkpt lat="45.46407" lon="6.38114">
        <ele>2061</ele>
        <time>2022-08-09T08:57:20Z</time>
      </trkpt>
      <trkpt lat="45.4641" lon="6.38109">
        <ele>2062</ele>
        <time>2022-08-09T08:57:30Z</time>
      </trkpt>
      <trkpt lat="45.46411" lon="6.38104">
        <ele>2064</ele>
        <time>2022-08-09T08:57:45Z</time>
      </trkpt>
      <trkpt lat="45.46414" lon="6.38098">
        <ele>2066</ele>
        <time>2022-08-09T08:58:10Z</time>
      </trkpt>
      <trkpt lat="45.46418" lon="6.38094">
        <ele>2068</ele>
        <time>2022-08-09T08:58:25Z</time>
      </trkpt>
      <trkpt lat="45.46421" lon="6.38087">
        <ele>2068</ele>
        <time>2022-08-09T08:58:35Z</time>
      </trkpt>
      <trkpt lat="45.46424" lon="6.38081">
        <ele>2069</ele>
        <time>2022-08-09T08:58:52Z</time>
      </trkpt>
      <trkpt lat="45.46425" lon="6.38075">
        <ele>2071</ele>
        <time>2022-08-09T09:16:17Z</time>
      </trkpt>
      <trkpt lat="45.46425" lon="6.38068">
        <ele>2073</ele>
        <time>2022-08-09T09:16:37Z</time>
      </trkpt>
      <trkpt lat="45.46426" lon="6.38061">
        <ele>2074</ele>
        <time>2022-08-09T09:16:52Z</time>
      </trkpt>
      <trkpt lat="45.46421" lon="6.38058">
        <ele>2074</ele>
        <time>2022-08-09T09:17:02Z</time>
      </trkpt>
      <trkpt lat="45.4642" lon="6.38045">
        <ele>2081</ele>
        <time>2022-08-09T09:17:59Z</time>
      </trkpt>
      <trkpt lat="45.46419" lon="6.38038">
        <ele>2082</ele>
        <time>2022-08-09T09:18:19Z</time>
      </trkpt>
      <trkpt lat="45.46417" lon="6.38031">
        <ele>2084</ele>
        <time>2022-08-09T09:18:49Z</time>
      </trkpt>
      <trkpt lat="45.46419" lon="6.38023">
        <ele>2086</ele>
        <time>2022-08-09T09:19:19Z</time>
      </trkpt>
      <trkpt lat="45.46422" lon="6.38017">
        <ele>2089</ele>
        <time>2022-08-09T09:19:39Z</time>
      </trkpt>
      <trkpt lat="45.46422" lon="6.38011">
        <ele>2090</ele>
        <time>2022-08-09T09:19:50Z</time>
      </trkpt>
      <trkpt lat="45.46419" lon="6.38004">
        <ele>2092</ele>
        <time>2022-08-09T09:20:07Z</time>
      </trkpt>
      <trkpt lat="45.4642" lon="6.37997">
        <ele>2095</ele>
        <time>2022-08-09T09:20:27Z</time>
      </trkpt>
      <trkpt lat="45.46421" lon="6.37991">
        <ele>2096</ele>
        <time>2022-08-09T09:20:42Z</time>
      </trkpt>
      <trkpt lat="45.46418" lon="6.37984">
        <ele>2097</ele>
        <time>2022-08-09T09:20:52Z</time>
      </trkpt>
      <trkpt lat="45.46417" lon="6.37979">
        <ele>2099</ele>
        <time>2022-08-09T09:21:07Z</time>
      </trkpt>
      <trkpt lat="45.4642" lon="6.37975">
        <ele>2101</ele>
        <time>2022-08-09T09:21:27Z</time>
      </trkpt>
      <trkpt lat="45.46421" lon="6.37967">
        <ele>2104</ele>
        <time>2022-08-09T09:21:58Z</time>
      </trkpt>
      <trkpt lat="45.46417" lon="6.37958">
        <ele>2106</ele>
        <time>2022-08-09T09:22:20Z</time>
      </trkpt>
      <trkpt lat="45.46413" lon="6.37952">
        <ele>2108</ele>
        <time>2022-08-09T09:22:35Z</time>
      </trkpt>
      <trkpt lat="45.46408" lon="6.37948">
        <ele>2110</ele>
        <time>2022-08-09T09:22:50Z</time>
      </trkpt>
      <trkpt lat="45.46405" lon="6.37944">
        <ele>2112</ele>
        <time>2022-08-09T09:23:25Z</time>
      </trkpt>
      <trkpt lat="45.46409" lon="6.3794">
        <ele>2114</ele>
        <time>2022-08-09T09:27:50Z</time>
      </trkpt>
      <trkpt lat="45.46413" lon="6.37937">
        <ele>2117</ele>
        <time>2022-08-09T09:28:05Z</time>
      </trkpt>
      <trkpt lat="45.46414" lon="6.3793">
        <ele>2119</ele>
        <time>2022-08-09T09:28:26Z</time>
      </trkpt>
      <trkpt lat="45.4642" lon="6.37927">
        <ele>2120</ele>
        <time>2022-08-09T09:28:41Z</time>
      </trkpt>
      <trkpt lat="45.46418" lon="6.37919">
        <ele>2123</ele>
        <time>2022-08-09T09:29:01Z</time>
      </trkpt>
      <trkpt lat="45.46415" lon="6.37907">
        <ele>2125</ele>
        <time>2022-08-09T09:29:41Z</time>
      </trkpt>
      <trkpt lat="45.46406" lon="6.37891">
        <ele>2130</ele>
        <time>2022-08-09T09:30:22Z</time>
      </trkpt>
      <trkpt lat="45.46403" lon="6.37885">
        <ele>2132</ele>
        <time>2022-08-09T09:30:37Z</time>
      </trkpt>
      <trkpt lat="45.464" lon="6.37878">
        <ele>2134</ele>
        <time>2022-08-09T09:30:52Z</time>
      </trkpt>
      <trkpt lat="45.46395" lon="6.37876">
        <ele>2136</ele>
        <time>2022-08-09T09:31:02Z</time>
      </trkpt>
      <trkpt lat="45.46393" lon="6.3787">
        <ele>2137</ele>
        <time>2022-08-09T09:31:17Z</time>
      </trkpt>
      <trkpt lat="45.46394" lon="6.37861">
        <ele>2139</ele>
        <time>2022-08-09T09:31:32Z</time>
      </trkpt>
      <trkpt lat="45.4639" lon="6.37857">
        <ele>2141</ele>
        <time>2022-08-09T09:32:12Z</time>
      </trkpt>
      <trkpt lat="45.46394" lon="6.37851">
        <ele>2142</ele>
        <time>2022-08-09T09:34:47Z</time>
      </trkpt>
      <trkpt lat="45.46399" lon="6.37853">
        <ele>2144</ele>
        <time>2022-08-09T09:35:02Z</time>
      </trkpt>
      <trkpt lat="45.46403" lon="6.37855">
        <ele>2144</ele>
        <time>2022-08-09T09:35:08Z</time>
      </trkpt>
      <trkpt lat="45.46409" lon="6.37854">
        <ele>2146</ele>
        <time>2022-08-09T09:35:43Z</time>
      </trkpt>
      <trkpt lat="45.46409" lon="6.37847">
        <ele>2147</ele>
        <time>2022-08-09T09:35:58Z</time>
      </trkpt>
      <trkpt lat="45.46411" lon="6.3784">
        <ele>2148</ele>
        <time>2022-08-09T09:36:13Z</time>
      </trkpt>
      <trkpt lat="45.46415" lon="6.3784">
        <ele>2149</ele>
        <time>2022-08-09T09:36:23Z</time>
      </trkpt>
      <trkpt lat="45.46421" lon="6.37838">
        <ele>2149</ele>
        <time>2022-08-09T09:36:46Z</time>
      </trkpt>
      <trkpt lat="45.46426" lon="6.37837">
        <ele>2151</ele>
        <time>2022-08-09T09:37:02Z</time>
      </trkpt>
      <trkpt lat="45.4643" lon="6.37833">
        <ele>2153</ele>
        <time>2022-08-09T09:37:22Z</time>
      </trkpt>
      <trkpt lat="45.46428" lon="6.37827">
        <ele>2154</ele>
        <time>2022-08-09T09:38:12Z</time>
      </trkpt>
      <trkpt lat="45.46424" lon="6.37822">
        <ele>2155</ele>
        <time>2022-08-09T09:41:57Z</time>
      </trkpt>
      <trkpt lat="45.46421" lon="6.37817">
        <ele>2158</ele>
        <time>2022-08-09T09:42:17Z</time>
      </trkpt>
      <trkpt lat="45.46416" lon="6.37813">
        <ele>2160</ele>
        <time>2022-08-09T09:42:37Z</time>
      </trkpt>
      <trkpt lat="45.46412" lon="6.37804">
        <ele>2162</ele>
        <time>2022-08-09T09:42:53Z</time>
      </trkpt>
      <trkpt lat="45.4641" lon="6.37798">
        <ele>2164</ele>
        <time>2022-08-09T09:43:10Z</time>
      </trkpt>
      <trkpt lat="45.46408" lon="6.3779">
        <ele>2167</ele>
        <time>2022-08-09T09:43:30Z</time>
      </trkpt>
      <trkpt lat="45.46402" lon="6.37778">
        <ele>2174</ele>
        <time>2022-08-09T09:44:16Z</time>
      </trkpt>
      <trkpt lat="45.46407" lon="6.37783">
        <ele>2176</ele>
        <time>2022-08-09T09:44:31Z</time>
      </trkpt>
      <trkpt lat="45.46414" lon="6.37784">
        <ele>2177</ele>
        <time>2022-08-09T09:44:46Z</time>
      </trkpt>
      <trkpt lat="45.46417" lon="6.37778">
        <ele>2179</ele>
        <time>2022-08-09T09:44:56Z</time>
      </trkpt>
      <trkpt lat="45.46415" lon="6.37771">
        <ele>2181</ele>
        <time>2022-08-09T09:45:14Z</time>
      </trkpt>
      <trkpt lat="45.46415" lon="6.37764">
        <ele>2184</ele>
        <time>2022-08-09T09:45:39Z</time>
      </trkpt>
      <trkpt lat="45.46419" lon="6.3776">
        <ele>2188</ele>
        <time>2022-08-09T09:46:09Z</time>
      </trkpt>
      <trkpt lat="45.4642" lon="6.37753">
        <ele>2189</ele>
        <time>2022-08-09T09:46:19Z</time>
      </trkpt>
      <trkpt lat="45.46422" lon="6.37746">
        <ele>2192</ele>
        <time>2022-08-09T09:46:44Z</time>
      </trkpt>
      <trkpt lat="45.46428" lon="6.37732">
        <ele>2198</ele>
        <time>2022-08-09T09:47:38Z</time>
      </trkpt>
      <trkpt lat="45.46433" lon="6.37729">
        <ele>2200</ele>
        <time>2022-08-09T09:47:53Z</time>
      </trkpt>
      <trkpt lat="45.46437" lon="6.37726">
        <ele>2202</ele>
        <time>2022-08-09T09:48:08Z</time>
      </trkpt>
      <trkpt lat="45.46439" lon="6.37718">
        <ele>2204</ele>
        <time>2022-08-09T09:48:23Z</time>
      </trkpt>
      <trkpt lat="45.46444" lon="6.37717">
        <ele>2207</ele>
        <time>2022-08-09T09:48:48Z</time>
      </trkpt>
      <trkpt lat="45.46448" lon="6.37711">
        <ele>2209</ele>
        <time>2022-08-09T09:49:03Z</time>
      </trkpt>
      <trkpt lat="45.46453" lon="6.377">
        <ele>2213</ele>
        <time>2022-08-09T09:49:41Z</time>
      </trkpt>
      <trkpt lat="45.46458" lon="6.37696">
        <ele>2215</ele>
        <time>2022-08-09T09:50:01Z</time>
      </trkpt>
      <trkpt lat="45.46462" lon="6.37693">
        <ele>2216</ele>
        <time>2022-08-09T09:50:16Z</time>
      </trkpt>
      <trkpt lat="45.46474" lon="6.37687">
        <ele>2219</ele>
        <time>2022-08-09T09:50:42Z</time>
      </trkpt>
      <trkpt lat="45.4648" lon="6.37686">
        <ele>2220</ele>
        <time>2022-08-09T09:50:49Z</time>
      </trkpt>
      <trkpt lat="45.46485" lon="6.37684">
        <ele>2220</ele>
        <time>2022-08-09T09:50:54Z</time>
      </trkpt>
      <trkpt lat="45.4649" lon="6.3768">
        <ele>2220</ele>
        <time>2022-08-09T09:51:01Z</time>
      </trkpt>
      <trkpt lat="45.465" lon="6.37674">
        <ele>2220</ele>
        <time>2022-08-09T09:51:13Z</time>
      </trkpt>
      <trkpt lat="45.46508" lon="6.37674">
        <ele>2220</ele>
        <time>2022-08-09T09:51:22Z</time>
      </trkpt>
      <trkpt lat="45.46513" lon="6.37673">
        <ele>2220</ele>
        <time>2022-08-09T09:51:27Z</time>
      </trkpt>
      <trkpt lat="45.46517" lon="6.37677">
        <ele>2221</ele>
        <time>2022-08-09T09:51:34Z</time>
      </trkpt>
      <trkpt lat="45.46525" lon="6.37681">
        <ele>2221</ele>
        <time>2022-08-09T09:51:45Z</time>
      </trkpt>
      <trkpt lat="45.46529" lon="6.37684">
        <ele>2220</ele>
        <time>2022-08-09T09:51:50Z</time>
      </trkpt>
      <trkpt lat="45.4654" lon="6.37693">
        <ele>2221</ele>
        <time>2022-08-09T09:52:07Z</time>
      </trkpt>
      <trkpt lat="45.46548" lon="6.37695">
        <ele>2222</ele>
        <time>2022-08-09T09:52:17Z</time>
      </trkpt>
      <trkpt lat="45.46557" lon="6.37696">
        <ele>2225</ele>
        <time>2022-08-09T09:52:37Z</time>
      </trkpt>
      <trkpt lat="45.46559" lon="6.37691">
        <ele>2226</ele>
        <time>2022-08-09T09:53:02Z</time>
      </trkpt>
      <trkpt lat="45.46558" lon="6.37685">
        <ele>2228</ele>
        <time>2022-08-09T09:53:17Z</time>
      </trkpt>
      <trkpt lat="45.46548" lon="6.37672">
        <ele>2230</ele>
        <time>2022-08-09T09:53:40Z</time>
      </trkpt>
      <trkpt lat="45.46544" lon="6.3767">
        <ele>2231</ele>
        <time>2022-08-09T09:53:50Z</time>
      </trkpt>
      <trkpt lat="45.46544" lon="6.37662">
        <ele>2232</ele>
        <time>2022-08-09T09:54:05Z</time>
      </trkpt>
      <trkpt lat="45.46544" lon="6.37648">
        <ele>2235</ele>
        <time>2022-08-09T09:54:30Z</time>
      </trkpt>
      <trkpt lat="45.46541" lon="6.37643">
        <ele>2236</ele>
        <time>2022-08-09T09:54:40Z</time>
      </trkpt>
      <trkpt lat="45.46543" lon="6.37637">
        <ele>2240</ele>
        <time>2022-08-09T09:55:05Z</time>
      </trkpt>
      <trkpt lat="45.46542" lon="6.3763">
        <ele>2242</ele>
        <time>2022-08-09T09:55:20Z</time>
      </trkpt>
      <trkpt lat="45.46544" lon="6.37623">
        <ele>2246</ele>
        <time>2022-08-09T09:55:47Z</time>
      </trkpt>
      <trkpt lat="45.46554" lon="6.37627">
        <ele>2249</ele>
        <time>2022-08-09T09:56:22Z</time>
      </trkpt>
      <trkpt lat="45.46559" lon="6.3763">
        <ele>2251</ele>
        <time>2022-08-09T09:56:37Z</time>
      </trkpt>
      <trkpt lat="45.46565" lon="6.37631">
        <ele>2253</ele>
        <time>2022-08-09T09:56:52Z</time>
      </trkpt>
      <trkpt lat="45.4657" lon="6.37634">
        <ele>2255</ele>
        <time>2022-08-09T09:57:12Z</time>
      </trkpt>
      <trkpt lat="45.46572" lon="6.37631">
        <ele>2256</ele>
        <time>2022-08-09T10:06:01Z</time>
      </trkpt>
      <trkpt lat="45.46573" lon="6.37632">
        <ele>2257</ele>
        <time>2022-08-09T10:18:52Z</time>
      </trkpt>
      <trkpt lat="45.46572" lon="6.37632">
        <ele>2259</ele>
        <time>2022-08-09T10:37:05Z</time>
      </trkpt>
      <trkpt lat="45.46571" lon="6.37622">
        <ele>2260</ele>
        <time>2022-08-09T10:44:47Z</time>
      </trkpt>
      <trkpt lat="45.46569" lon="6.37617">
        <ele>2260</ele>
        <time>2022-08-09T10:46:55Z</time>
      </trkpt>
      <trkpt lat="45.46566" lon="6.37612">
        <ele>2261</ele>
        <time>2022-08-09T10:47:25Z</time>
      </trkpt>
      <trkpt lat="45.46561" lon="6.37605">
        <ele>2262</ele>
        <time>2022-08-09T10:47:35Z</time>
      </trkpt>
      <trkpt lat="45.46553" lon="6.37595">
        <ele>2262</ele>
        <time>2022-08-09T10:47:52Z</time>
      </trkpt>
      <trkpt lat="45.46545" lon="6.37592">
        <ele>2263</ele>
        <time>2022-08-09T10:48:03Z</time>
      </trkpt>
      <trkpt lat="45.46539" lon="6.37588">
        <ele>2264</ele>
        <time>2022-08-09T10:48:12Z</time>
      </trkpt>
      <trkpt lat="45.46535" lon="6.37583">
        <ele>2265</ele>
        <time>2022-08-09T10:48:23Z</time>
      </trkpt>
      <trkpt lat="45.46531" lon="6.37581">
        <ele>2265</ele>
        <time>2022-08-09T10:48:28Z</time>
      </trkpt>
      <trkpt lat="45.46527" lon="6.37578">
        <ele>2266</ele>
        <time>2022-08-09T10:48:32Z</time>
      </trkpt>
      <trkpt lat="45.46523" lon="6.37576">
        <ele>2267</ele>
        <time>2022-08-09T10:48:44Z</time>
      </trkpt>
      <trkpt lat="45.46519" lon="6.37572">
        <ele>2269</ele>
        <time>2022-08-09T10:48:59Z</time>
      </trkpt>
      <trkpt lat="45.46525" lon="6.37561">
        <ele>2275</ele>
        <time>2022-08-09T10:49:44Z</time>
      </trkpt>
      <trkpt lat="45.46523" lon="6.37554">
        <ele>2278</ele>
        <time>2022-08-09T10:50:05Z</time>
      </trkpt>
      <trkpt lat="45.46524" lon="6.37548">
        <ele>2282</ele>
        <time>2022-08-09T10:50:37Z</time>
      </trkpt>
      <trkpt lat="45.46528" lon="6.37546">
        <ele>2284</ele>
        <time>2022-08-09T10:50:47Z</time>
      </trkpt>
      <trkpt lat="45.4653" lon="6.37541">
        <ele>2285</ele>
        <time>2022-08-09T10:51:02Z</time>
      </trkpt>
      <trkpt lat="45.46527" lon="6.37535">
        <ele>2287</ele>
        <time>2022-08-09T10:51:17Z</time>
      </trkpt>
      <trkpt lat="45.46524" lon="6.37533">
        <ele>2289</ele>
        <time>2022-08-09T10:51:32Z</time>
      </trkpt>
      <trkpt lat="45.46527" lon="6.37529">
        <ele>2292</ele>
        <time>2022-08-09T10:52:19Z</time>
      </trkpt>
      <trkpt lat="45.4653" lon="6.37524">
        <ele>2294</ele>
        <time>2022-08-09T10:52:35Z</time>
      </trkpt>
      <trkpt lat="45.46533" lon="6.37518">
        <ele>2296</ele>
        <time>2022-08-09T10:52:50Z</time>
      </trkpt>
      <trkpt lat="45.46536" lon="6.37514">
        <ele>2298</ele>
        <time>2022-08-09T10:53:05Z</time>
      </trkpt>
      <trkpt lat="45.46543" lon="6.37502">
        <ele>2303</ele>
        <time>2022-08-09T10:53:45Z</time>
      </trkpt>
      <trkpt lat="45.46548" lon="6.37497">
        <ele>2305</ele>
        <time>2022-08-09T10:54:00Z</time>
      </trkpt>
      <trkpt lat="45.46557" lon="6.37491">
        <ele>2308</ele>
        <time>2022-08-09T10:54:28Z</time>
      </trkpt>
      <trkpt lat="45.4656" lon="6.37486">
        <ele>2312</ele>
        <time>2022-08-09T10:54:59Z</time>
      </trkpt>
      <trkpt lat="45.4656" lon="6.37478">
        <ele>2314</ele>
        <time>2022-08-09T10:55:24Z</time>
      </trkpt>
      <trkpt lat="45.46562" lon="6.37472">
        <ele>2317</ele>
        <time>2022-08-09T10:55:49Z</time>
      </trkpt>
      <trkpt lat="45.4656" lon="6.37465">
        <ele>2319</ele>
        <time>2022-08-09T10:56:04Z</time>
      </trkpt>
      <trkpt lat="45.46557" lon="6.37459">
        <ele>2321</ele>
        <time>2022-08-09T10:56:25Z</time>
      </trkpt>
      <trkpt lat="45.46554" lon="6.37452">
        <ele>2323</ele>
        <time>2022-08-09T10:56:41Z</time>
      </trkpt>
      <trkpt lat="45.46551" lon="6.37438">
        <ele>2327</ele>
        <time>2022-08-09T10:57:12Z</time>
      </trkpt>
      <trkpt lat="45.46552" lon="6.3743">
        <ele>2329</ele>
        <time>2022-08-09T10:57:27Z</time>
      </trkpt>
      <trkpt lat="45.46554" lon="6.37424">
        <ele>2330</ele>
        <time>2022-08-09T10:57:37Z</time>
      </trkpt>
      <trkpt lat="45.46554" lon="6.37418">
        <ele>2332</ele>
        <time>2022-08-09T10:57:52Z</time>
      </trkpt>
      <trkpt lat="45.46552" lon="6.3741">
        <ele>2333</ele>
        <time>2022-08-09T10:58:08Z</time>
      </trkpt>
      <trkpt lat="45.46554" lon="6.37402">
        <ele>2336</ele>
        <time>2022-08-09T10:58:29Z</time>
      </trkpt>
      <trkpt lat="45.46556" lon="6.37394">
        <ele>2339</ele>
        <time>2022-08-09T10:58:51Z</time>
      </trkpt>
      <trkpt lat="45.46556" lon="6.37388">
        <ele>2341</ele>
        <time>2022-08-09T10:59:11Z</time>
      </trkpt>
      <trkpt lat="45.46561" lon="6.37385">
        <ele>2344</ele>
        <time>2022-08-09T10:59:31Z</time>
      </trkpt>
      <trkpt lat="45.46565" lon="6.37383">
        <ele>2346</ele>
        <time>2022-08-09T10:59:46Z</time>
      </trkpt>
      <trkpt lat="45.46571" lon="6.37382">
        <ele>2349</ele>
        <time>2022-08-09T11:00:06Z</time>
      </trkpt>
      <trkpt lat="45.46573" lon="6.37377">
        <ele>2351</ele>
        <time>2022-08-09T11:00:31Z</time>
      </trkpt>
      <trkpt lat="45.46571" lon="6.37371">
        <ele>2354</ele>
        <time>2022-08-09T11:00:58Z</time>
      </trkpt>
      <trkpt lat="45.46576" lon="6.37365">
        <ele>2356</ele>
        <time>2022-08-09T11:01:18Z</time>
      </trkpt>
      <trkpt lat="45.4658" lon="6.37362">
        <ele>2357</ele>
        <time>2022-08-09T11:01:28Z</time>
      </trkpt>
      <trkpt lat="45.46581" lon="6.37354">
        <ele>2357</ele>
        <time>2022-08-09T11:01:38Z</time>
      </trkpt>
      <trkpt lat="45.4658" lon="6.37346">
        <ele>2357</ele>
        <time>2022-08-09T11:01:53Z</time>
      </trkpt>
      <trkpt lat="45.46578" lon="6.3734">
        <ele>2359</ele>
        <time>2022-08-09T11:02:08Z</time>
      </trkpt>
      <trkpt lat="45.46578" lon="6.37334">
        <ele>2360</ele>
        <time>2022-08-09T11:02:18Z</time>
      </trkpt>
      <trkpt lat="45.46578" lon="6.37328">
        <ele>2362</ele>
        <time>2022-08-09T11:02:33Z</time>
      </trkpt>
      <trkpt lat="45.46581" lon="6.37319">
        <ele>2364</ele>
        <time>2022-08-09T11:02:50Z</time>
      </trkpt>
      <trkpt lat="45.46579" lon="6.37313">
        <ele>2366</ele>
        <time>2022-08-09T11:03:02Z</time>
      </trkpt>
      <trkpt lat="45.46579" lon="6.37304">
        <ele>2368</ele>
        <time>2022-08-09T11:03:22Z</time>
      </trkpt>
      <trkpt lat="45.46584" lon="6.37301">
        <ele>2368</ele>
        <time>2022-08-09T11:03:32Z</time>
      </trkpt>
      <trkpt lat="45.46584" lon="6.37293">
        <ele>2368</ele>
        <time>2022-08-09T11:03:42Z</time>
      </trkpt>
      <trkpt lat="45.46586" lon="6.37287">
        <ele>2369</ele>
        <time>2022-08-09T11:03:52Z</time>
      </trkpt>
      <trkpt lat="45.46587" lon="6.3728">
        <ele>2371</ele>
        <time>2022-08-09T11:04:07Z</time>
      </trkpt>
      <trkpt lat="45.4659" lon="6.37276">
        <ele>2371</ele>
        <time>2022-08-09T11:04:27Z</time>
      </trkpt>
      <trkpt lat="45.46594" lon="6.37271">
        <ele>2373</ele>
        <time>2022-08-09T11:04:48Z</time>
      </trkpt>
      <trkpt lat="45.46598" lon="6.37272">
        <ele>2372</ele>
        <time>2022-08-09T11:05:00Z</time>
      </trkpt>
      <trkpt lat="45.46603" lon="6.37272">
        <ele>2373</ele>
        <time>2022-08-09T11:05:16Z</time>
      </trkpt>
      <trkpt lat="45.46606" lon="6.37266">
        <ele>2375</ele>
        <time>2022-08-09T11:05:36Z</time>
      </trkpt>
      <trkpt lat="45.46613" lon="6.37256">
        <ele>2378</ele>
        <time>2022-08-09T11:06:11Z</time>
      </trkpt>
      <trkpt lat="45.46614" lon="6.37248">
        <ele>2381</ele>
        <time>2022-08-09T11:06:31Z</time>
      </trkpt>
      <trkpt lat="45.46612" lon="6.37243">
        <ele>2382</ele>
        <time>2022-08-09T11:06:46Z</time>
      </trkpt>
      <trkpt lat="45.46614" lon="6.37235">
        <ele>2384</ele>
        <time>2022-08-09T11:07:20Z</time>
      </trkpt>
      <trkpt lat="45.46618" lon="6.3723">
        <ele>2385</ele>
        <time>2022-08-09T11:07:40Z</time>
      </trkpt>
      <trkpt lat="45.46624" lon="6.37217">
        <ele>2388</ele>
        <time>2022-08-09T11:08:20Z</time>
      </trkpt>
      <trkpt lat="45.46626" lon="6.37208">
        <ele>2390</ele>
        <time>2022-08-09T11:08:35Z</time>
      </trkpt>
      <trkpt lat="45.46629" lon="6.37204">
        <ele>2391</ele>
        <time>2022-08-09T11:08:55Z</time>
      </trkpt>
      <trkpt lat="45.46633" lon="6.372">
        <ele>2393</ele>
        <time>2022-08-09T11:09:07Z</time>
      </trkpt>
      <trkpt lat="45.46636" lon="6.37194">
        <ele>2393</ele>
        <time>2022-08-09T11:09:18Z</time>
      </trkpt>
      <trkpt lat="45.46641" lon="6.37187">
        <ele>2395</ele>
        <time>2022-08-09T11:09:33Z</time>
      </trkpt>
      <trkpt lat="45.46642" lon="6.3718">
        <ele>2396</ele>
        <time>2022-08-09T11:09:48Z</time>
      </trkpt>
      <trkpt lat="45.46645" lon="6.37172">
        <ele>2397</ele>
        <time>2022-08-09T11:09:58Z</time>
      </trkpt>
      <trkpt lat="45.46648" lon="6.37165">
        <ele>2398</ele>
        <time>2022-08-09T11:10:13Z</time>
      </trkpt>
      <trkpt lat="45.46646" lon="6.37159">
        <ele>2398</ele>
        <time>2022-08-09T11:10:28Z</time>
      </trkpt>
      <trkpt lat="45.46648" lon="6.37152">
        <ele>2399</ele>
        <time>2022-08-09T11:10:43Z</time>
      </trkpt>
      <trkpt lat="45.46647" lon="6.37145">
        <ele>2400</ele>
        <time>2022-08-09T11:10:53Z</time>
      </trkpt>
      <trkpt lat="45.46644" lon="6.37139">
        <ele>2401</ele>
        <time>2022-08-09T11:11:10Z</time>
      </trkpt>
      <trkpt lat="45.46643" lon="6.37133">
        <ele>2401</ele>
        <time>2022-08-09T11:11:32Z</time>
      </trkpt>
      <trkpt lat="45.46644" lon="6.37125">
        <ele>2404</ele>
        <time>2022-08-09T11:11:57Z</time>
      </trkpt>
      <trkpt lat="45.46647" lon="6.37119">
        <ele>2406</ele>
        <time>2022-08-09T11:12:17Z</time>
      </trkpt>
      <trkpt lat="45.46645" lon="6.37111">
        <ele>2407</ele>
        <time>2022-08-09T11:12:32Z</time>
      </trkpt>
      <trkpt lat="45.46643" lon="6.37104">
        <ele>2408</ele>
        <time>2022-08-09T11:12:47Z</time>
      </trkpt>
      <trkpt lat="45.46644" lon="6.37098">
        <ele>2411</ele>
        <time>2022-08-09T11:13:13Z</time>
      </trkpt>
      <trkpt lat="45.46648" lon="6.3709">
        <ele>2412</ele>
        <time>2022-08-09T11:13:30Z</time>
      </trkpt>
      <trkpt lat="45.46646" lon="6.37085">
        <ele>2414</ele>
        <time>2022-08-09T11:13:45Z</time>
      </trkpt>
      <trkpt lat="45.46646" lon="6.37079">
        <ele>2414</ele>
        <time>2022-08-09T11:14:10Z</time>
      </trkpt>
      <trkpt lat="45.46646" lon="6.37072">
        <ele>2416</ele>
        <time>2022-08-09T11:14:30Z</time>
      </trkpt>
      <trkpt lat="45.46647" lon="6.37066">
        <ele>2419</ele>
        <time>2022-08-09T11:15:28Z</time>
      </trkpt>
      <trkpt lat="45.46646" lon="6.37058">
        <ele>2421</ele>
        <time>2022-08-09T11:15:49Z</time>
      </trkpt>
      <trkpt lat="45.46645" lon="6.37052">
        <ele>2423</ele>
        <time>2022-08-09T11:16:09Z</time>
      </trkpt>
      <trkpt lat="45.46647" lon="6.37045">
        <ele>2425</ele>
        <time>2022-08-09T11:16:34Z</time>
      </trkpt>
      <trkpt lat="45.46645" lon="6.37037">
        <ele>2427</ele>
        <time>2022-08-09T11:16:54Z</time>
      </trkpt>
      <trkpt lat="45.46643" lon="6.3703">
        <ele>2429</ele>
        <time>2022-08-09T11:17:14Z</time>
      </trkpt>
      <trkpt lat="45.46645" lon="6.37023">
        <ele>2433</ele>
        <time>2022-08-09T11:17:56Z</time>
      </trkpt>
      <trkpt lat="45.46645" lon="6.37017">
        <ele>2435</ele>
        <time>2022-08-09T11:18:11Z</time>
      </trkpt>
      <trkpt lat="45.46639" lon="6.37003">
        <ele>2438</ele>
        <time>2022-08-09T11:18:41Z</time>
      </trkpt>
      <trkpt lat="45.46637" lon="6.36996">
        <ele>2440</ele>
        <time>2022-08-09T11:18:56Z</time>
      </trkpt>
      <trkpt lat="45.46637" lon="6.36991">
        <ele>2444</ele>
        <time>2022-08-09T11:19:26Z</time>
      </trkpt>
      <trkpt lat="45.46636" lon="6.36984">
        <ele>2446</ele>
        <time>2022-08-09T11:19:44Z</time>
      </trkpt>
      <trkpt lat="45.46639" lon="6.36978">
        <ele>2450</ele>
        <time>2022-08-09T11:20:24Z</time>
      </trkpt>
      <trkpt lat="45.4664" lon="6.36974">
        <ele>2453</ele>
        <time>2022-08-09T11:21:35Z</time>
      </trkpt>
      <trkpt lat="45.46644" lon="6.36972">
        <ele>2456</ele>
        <time>2022-08-09T11:22:02Z</time>
      </trkpt>
      <trkpt lat="45.46644" lon="6.36965">
        <ele>2458</ele>
        <time>2022-08-09T11:22:17Z</time>
      </trkpt>
      <trkpt lat="45.46643" lon="6.36951">
        <ele>2464</ele>
        <time>2022-08-09T11:23:07Z</time>
      </trkpt>
      <trkpt lat="45.46641" lon="6.36945">
        <ele>2465</ele>
        <time>2022-08-09T11:23:27Z</time>
      </trkpt>
      <trkpt lat="45.46638" lon="6.36932">
        <ele>2469</ele>
        <time>2022-08-09T11:24:04Z</time>
      </trkpt>
      <trkpt lat="45.46636" lon="6.36926">
        <ele>2470</ele>
        <time>2022-08-09T11:24:19Z</time>
      </trkpt>
      <trkpt lat="45.46633" lon="6.36921">
        <ele>2472</ele>
        <time>2022-08-09T11:24:34Z</time>
      </trkpt>
      <trkpt lat="45.46632" lon="6.36914">
        <ele>2474</ele>
        <time>2022-08-09T11:25:04Z</time>
      </trkpt>
      <trkpt lat="45.46634" lon="6.36908">
        <ele>2482</ele>
        <time>2022-08-09T11:25:55Z</time>
      </trkpt>
      <trkpt lat="45.46638" lon="6.36904">
        <ele>2486</ele>
        <time>2022-08-09T11:26:30Z</time>
      </trkpt>
      <trkpt lat="45.4664" lon="6.36896">
        <ele>2488</ele>
        <time>2022-08-09T11:27:00Z</time>
      </trkpt>
      <trkpt lat="45.46643" lon="6.36892">
        <ele>2493</ele>
        <time>2022-08-09T11:27:35Z</time>
      </trkpt>
      <trkpt lat="45.46647" lon="6.36888">
        <ele>2495</ele>
        <time>2022-08-09T11:27:50Z</time>
      </trkpt>
      <trkpt lat="45.46655" lon="6.36877">
        <ele>2501</ele>
        <time>2022-08-09T11:28:33Z</time>
      </trkpt>
      <trkpt lat="45.46653" lon="6.3687">
        <ele>2501</ele>
        <time>2022-08-09T11:28:58Z</time>
      </trkpt>
      <trkpt lat="45.46651" lon="6.36862">
        <ele>2501</ele>
        <time>2022-08-09T11:29:08Z</time>
      </trkpt>
      <trkpt lat="45.4665" lon="6.36856">
        <ele>2501</ele>
        <time>2022-08-09T11:29:18Z</time>
      </trkpt>
      <trkpt lat="45.46646" lon="6.36851">
        <ele>2502</ele>
        <time>2022-08-09T11:29:28Z</time>
      </trkpt>
      <trkpt lat="45.46647" lon="6.36846">
        <ele>2503</ele>
        <time>2022-08-09T11:29:48Z</time>
      </trkpt>
      <trkpt lat="45.46647" lon="6.3684">
        <ele>2505</ele>
        <time>2022-08-09T11:29:59Z</time>
      </trkpt>
      <trkpt lat="45.46645" lon="6.36832">
        <ele>2507</ele>
        <time>2022-08-09T11:30:16Z</time>
      </trkpt>
      <trkpt lat="45.46642" lon="6.36826">
        <ele>2507</ele>
        <time>2022-08-09T11:30:31Z</time>
      </trkpt>
      <trkpt lat="45.46639" lon="6.3682">
        <ele>2509</ele>
        <time>2022-08-09T11:30:46Z</time>
      </trkpt>
      <trkpt lat="45.46636" lon="6.36814">
        <ele>2509</ele>
        <time>2022-08-09T11:30:56Z</time>
      </trkpt>
      <trkpt lat="45.46632" lon="6.36811">
        <ele>2510</ele>
        <time>2022-08-09T11:31:11Z</time>
      </trkpt>
      <trkpt lat="45.46628" lon="6.36807">
        <ele>2510</ele>
        <time>2022-08-09T11:31:21Z</time>
      </trkpt>
      <trkpt lat="45.46618" lon="6.36799">
        <ele>2513</ele>
        <time>2022-08-09T11:32:07Z</time>
      </trkpt>
      <trkpt lat="45.46613" lon="6.36798">
        <ele>2513</ele>
        <time>2022-08-09T11:32:23Z</time>
      </trkpt>
      <trkpt lat="45.46604" lon="6.36794">
        <ele>2516</ele>
        <time>2022-08-09T11:32:54Z</time>
      </trkpt>
      <trkpt lat="45.466" lon="6.36791">
        <ele>2518</ele>
        <time>2022-08-09T11:33:14Z</time>
      </trkpt>
      <trkpt lat="45.46595" lon="6.36786">
        <ele>2520</ele>
        <time>2022-08-09T11:33:29Z</time>
      </trkpt>
      <trkpt lat="45.4659" lon="6.36785">
        <ele>2521</ele>
        <time>2022-08-09T11:33:39Z</time>
      </trkpt>
      <trkpt lat="45.46586" lon="6.36783">
        <ele>2521</ele>
        <time>2022-08-09T11:33:54Z</time>
      </trkpt>
      <trkpt lat="45.4658" lon="6.36783">
        <ele>2522</ele>
        <time>2022-08-09T11:34:05Z</time>
      </trkpt>
      <trkpt lat="45.46576" lon="6.36783">
        <ele>2523</ele>
        <time>2022-08-09T11:34:16Z</time>
      </trkpt>
      <trkpt lat="45.46572" lon="6.36781">
        <ele>2523</ele>
        <time>2022-08-09T11:34:33Z</time>
      </trkpt>
      <trkpt lat="45.46566" lon="6.36781">
        <ele>2523</ele>
        <time>2022-08-09T11:34:48Z</time>
      </trkpt>
      <trkpt lat="45.46563" lon="6.36785">
        <ele>2526</ele>
        <time>2022-08-09T11:35:03Z</time>
      </trkpt>
      <trkpt lat="45.46559" lon="6.36782">
        <ele>2528</ele>
        <time>2022-08-09T11:35:33Z</time>
      </trkpt>
      <trkpt lat="45.46553" lon="6.36783">
        <ele>2531</ele>
        <time>2022-08-09T11:36:03Z</time>
      </trkpt>
      <trkpt lat="45.46549" lon="6.36785">
        <ele>2531</ele>
        <time>2022-08-09T11:36:24Z</time>
      </trkpt>
      <trkpt lat="45.46545" lon="6.3679">
        <ele>2531</ele>
        <time>2022-08-09T11:36:35Z</time>
      </trkpt>
      <trkpt lat="45.46542" lon="6.36792">
        <ele>2533</ele>
        <time>2022-08-09T11:36:50Z</time>
      </trkpt>
      <trkpt lat="45.46531" lon="6.36795">
        <ele>2535</ele>
        <time>2022-08-09T11:37:30Z</time>
      </trkpt>
      <trkpt lat="45.46525" lon="6.36793">
        <ele>2535</ele>
        <time>2022-08-09T11:37:40Z</time>
      </trkpt>
      <trkpt lat="45.46516" lon="6.36793">
        <ele>2535</ele>
        <time>2022-08-09T11:38:05Z</time>
      </trkpt>
      <trkpt lat="45.46512" lon="6.36794">
        <ele>2533</ele>
        <time>2022-08-09T11:38:20Z</time>
      </trkpt>
      <trkpt lat="45.46509" lon="6.36801">
        <ele>2534</ele>
        <time>2022-08-09T11:38:32Z</time>
      </trkpt>
      <trkpt lat="45.46505" lon="6.368">
        <ele>2534</ele>
        <time>2022-08-09T11:43:58Z</time>
      </trkpt>
      <trkpt lat="45.465" lon="6.36801">
        <ele>2531</ele>
        <time>2022-08-09T11:44:56Z</time>
      </trkpt>
      <trkpt lat="45.46495" lon="6.368">
        <ele>2531</ele>
        <time>2022-08-09T11:45:06Z</time>
      </trkpt>
      <trkpt lat="45.46489" lon="6.36801">
        <ele>2531</ele>
        <time>2022-08-09T11:45:16Z</time>
      </trkpt>
      <trkpt lat="45.46485" lon="6.36798">
        <ele>2531</ele>
        <time>2022-08-09T11:45:31Z</time>
      </trkpt>
      <trkpt lat="45.4648" lon="6.36796">
        <ele>2531</ele>
        <time>2022-08-09T11:45:51Z</time>
      </trkpt>
      <trkpt lat="45.46473" lon="6.36796">
        <ele>2531</ele>
        <time>2022-08-09T11:46:06Z</time>
      </trkpt>
      <trkpt lat="45.46468" lon="6.36798">
        <ele>2532</ele>
        <time>2022-08-09T11:46:21Z</time>
      </trkpt>
      <trkpt lat="45.46463" lon="6.368">
        <ele>2532</ele>
        <time>2022-08-09T11:46:41Z</time>
      </trkpt>
      <trkpt lat="45.46465" lon="6.36806">
        <ele>2530</ele>
        <time>2022-08-09T11:47:02Z</time>
      </trkpt>
      <trkpt lat="45.46465" lon="6.36812">
        <ele>2527</ele>
        <time>2022-08-09T11:47:22Z</time>
      </trkpt>
      <trkpt lat="45.46467" lon="6.3682">
        <ele>2524</ele>
        <time>2022-08-09T11:48:17Z</time>
      </trkpt>
      <trkpt lat="45.46462" lon="6.36819">
        <ele>2522</ele>
        <time>2022-08-09T11:48:27Z</time>
      </trkpt>
      <trkpt lat="45.46456" lon="6.36823">
        <ele>2520</ele>
        <time>2022-08-09T11:49:10Z</time>
      </trkpt>
      <trkpt lat="45.46452" lon="6.36821">
        <ele>2520</ele>
        <time>2022-08-09T11:49:20Z</time>
      </trkpt>
      <trkpt lat="45.46441" lon="6.36813">
        <ele>2519</ele>
        <time>2022-08-09T11:49:53Z</time>
      </trkpt>
      <trkpt lat="45.46437" lon="6.36813">
        <ele>2520</ele>
        <time>2022-08-09T11:50:03Z</time>
      </trkpt>
      <trkpt lat="45.46431" lon="6.36811">
        <ele>2520</ele>
        <time>2022-08-09T11:50:10Z</time>
      </trkpt>
      <trkpt lat="45.46426" lon="6.36814">
        <ele>2520</ele>
        <time>2022-08-09T11:50:18Z</time>
      </trkpt>
      <trkpt lat="45.46422" lon="6.36813">
        <ele>2520</ele>
        <time>2022-08-09T11:50:23Z</time>
      </trkpt>
      <trkpt lat="45.46415" lon="6.36814">
        <ele>2520</ele>
        <time>2022-08-09T11:50:33Z</time>
      </trkpt>
      <trkpt lat="45.46412" lon="6.36818">
        <ele>2520</ele>
        <time>2022-08-09T11:50:43Z</time>
      </trkpt>
      <trkpt lat="45.46408" lon="6.36812">
        <ele>2520</ele>
        <time>2022-08-09T11:50:53Z</time>
      </trkpt>
      <trkpt lat="45.46404" lon="6.3681">
        <ele>2520</ele>
        <time>2022-08-09T11:50:57Z</time>
      </trkpt>
      <trkpt lat="45.46402" lon="6.36813">
        <ele>2521</ele>
        <time>2022-08-09T11:51:14Z</time>
      </trkpt>
      <trkpt lat="45.46395" lon="6.36811">
        <ele>2522</ele>
        <time>2022-08-09T11:51:26Z</time>
      </trkpt>
      <trkpt lat="45.4639" lon="6.3681">
        <ele>2523</ele>
        <time>2022-08-09T11:51:36Z</time>
      </trkpt>
      <trkpt lat="45.46385" lon="6.36805">
        <ele>2525</ele>
        <time>2022-08-09T11:51:56Z</time>
      </trkpt>
      <trkpt lat="45.4638" lon="6.36803">
        <ele>2526</ele>
        <time>2022-08-09T11:52:06Z</time>
      </trkpt>
      <trkpt lat="45.46375" lon="6.36801">
        <ele>2527</ele>
        <time>2022-08-09T11:52:18Z</time>
      </trkpt>
      <trkpt lat="45.46365" lon="6.36791">
        <ele>2532</ele>
        <time>2022-08-09T11:52:58Z</time>
      </trkpt>
      <trkpt lat="45.46357" lon="6.36785">
        <ele>2536</ele>
        <time>2022-08-09T11:53:35Z</time>
      </trkpt>
      <trkpt lat="45.46352" lon="6.36781">
        <ele>2538</ele>
        <time>2022-08-09T11:53:56Z</time>
      </trkpt>
      <trkpt lat="45.4635" lon="6.36775">
        <ele>2540</ele>
        <time>2022-08-09T11:54:11Z</time>
      </trkpt>
      <trkpt lat="45.46345" lon="6.36773">
        <ele>2541</ele>
        <time>2022-08-09T11:54:16Z</time>
      </trkpt>
      <trkpt lat="45.46347" lon="6.36763">
        <ele>2545</ele>
        <time>2022-08-09T11:54:51Z</time>
      </trkpt>
      <trkpt lat="45.46344" lon="6.36757">
        <ele>2548</ele>
        <time>2022-08-09T11:55:08Z</time>
      </trkpt>
      <trkpt lat="45.46337" lon="6.3675">
        <ele>2550</ele>
        <time>2022-08-09T11:55:26Z</time>
      </trkpt>
      <trkpt lat="45.46332" lon="6.3675">
        <ele>2552</ele>
        <time>2022-08-09T11:55:38Z</time>
      </trkpt>
      <trkpt lat="45.46326" lon="6.36746">
        <ele>2554</ele>
        <time>2022-08-09T11:55:58Z</time>
      </trkpt>
      <trkpt lat="45.46321" lon="6.36747">
        <ele>2555</ele>
        <time>2022-08-09T11:56:13Z</time>
      </trkpt>
      <trkpt lat="45.46316" lon="6.36744">
        <ele>2559</ele>
        <time>2022-08-09T11:56:58Z</time>
      </trkpt>
      <trkpt lat="45.46309" lon="6.36742">
        <ele>2562</ele>
        <time>2022-08-09T11:57:25Z</time>
      </trkpt>
      <trkpt lat="45.46305" lon="6.36751">
        <ele>2564</ele>
        <time>2022-08-09T11:57:47Z</time>
      </trkpt>
      <trkpt lat="45.46301" lon="6.36751">
        <ele>2567</ele>
        <time>2022-08-09T11:58:22Z</time>
      </trkpt>
      <trkpt lat="45.46292" lon="6.36747">
        <ele>2574</ele>
        <time>2022-08-09T11:59:19Z</time>
      </trkpt>
      <trkpt lat="45.46288" lon="6.3675">
        <ele>2576</ele>
        <time>2022-08-09T11:59:36Z</time>
      </trkpt>
      <trkpt lat="45.46284" lon="6.36753">
        <ele>2577</ele>
        <time>2022-08-09T11:59:52Z</time>
      </trkpt>
      <trkpt lat="45.46279" lon="6.36751">
        <ele>2581</ele>
        <time>2022-08-09T12:00:27Z</time>
      </trkpt>
      <trkpt lat="45.46276" lon="6.36756">
        <ele>2581</ele>
        <time>2022-08-09T12:00:52Z</time>
      </trkpt>
      <trkpt lat="45.46272" lon="6.36754">
        <ele>2584</ele>
        <time>2022-08-09T12:01:51Z</time>
      </trkpt>
      <trkpt lat="45.46266" lon="6.36753">
        <ele>2585</ele>
        <time>2022-08-09T12:02:11Z</time>
      </trkpt>
      <trkpt lat="45.46263" lon="6.3676">
        <ele>2587</ele>
        <time>2022-08-09T12:02:31Z</time>
      </trkpt>
      <trkpt lat="45.46262" lon="6.36761">
        <ele>2589</ele>
        <time>2022-08-09T12:03:48Z</time>
      </trkpt>
      <trkpt lat="45.46258" lon="6.36754">
        <ele>2590</ele>
        <time>2022-08-09T12:04:18Z</time>
      </trkpt>
      <trkpt lat="45.46255" lon="6.36749">
        <ele>2591</ele>
        <time>2022-08-09T12:04:53Z</time>
      </trkpt>
      <trkpt lat="45.46251" lon="6.36748">
        <ele>2593</ele>
        <time>2022-08-09T12:05:50Z</time>
      </trkpt>
      <trkpt lat="45.46247" lon="6.36745">
        <ele>2594</ele>
        <time>2022-08-09T12:06:11Z</time>
      </trkpt>
      <trkpt lat="45.46244" lon="6.3674">
        <ele>2596</ele>
        <time>2022-08-09T12:06:36Z</time>
      </trkpt>
      <trkpt lat="45.46234" lon="6.36733">
        <ele>2599</ele>
        <time>2022-08-09T12:07:48Z</time>
      </trkpt>
      <trkpt lat="45.4623" lon="6.3673">
        <ele>2600</ele>
        <time>2022-08-09T12:08:00Z</time>
      </trkpt>
      <trkpt lat="45.46226" lon="6.36725">
        <ele>2602</ele>
        <time>2022-08-09T12:08:16Z</time>
      </trkpt>
      <trkpt lat="45.46221" lon="6.36721">
        <ele>2604</ele>
        <time>2022-08-09T12:08:31Z</time>
      </trkpt>
      <trkpt lat="45.46217" lon="6.36719">
        <ele>2605</ele>
        <time>2022-08-09T12:08:46Z</time>
      </trkpt>
      <trkpt lat="45.46212" lon="6.36716">
        <ele>2607</ele>
        <time>2022-08-09T12:09:06Z</time>
      </trkpt>
      <trkpt lat="45.4621" lon="6.3671">
        <ele>2609</ele>
        <time>2022-08-09T12:09:26Z</time>
      </trkpt>
      <trkpt lat="45.46204" lon="6.3671">
        <ele>2611</ele>
        <time>2022-08-09T12:09:41Z</time>
      </trkpt>
      <trkpt lat="45.46201" lon="6.36706">
        <ele>2613</ele>
        <time>2022-08-09T12:09:58Z</time>
      </trkpt>
      <trkpt lat="45.46196" lon="6.36704">
        <ele>2614</ele>
        <time>2022-08-09T12:10:10Z</time>
      </trkpt>
      <trkpt lat="45.46198" lon="6.36698">
        <ele>2616</ele>
        <time>2022-08-09T12:11:25Z</time>
      </trkpt>
      <trkpt lat="45.46204" lon="6.36699">
        <ele>2617</ele>
        <time>2022-08-09T12:12:47Z</time>
      </trkpt>
      <trkpt lat="45.46204" lon="6.36707">
        <ele>2616</ele>
        <time>2022-08-09T12:15:05Z</time>
      </trkpt>
      <trkpt lat="45.46207" lon="6.36713">
        <ele>2614</ele>
        <time>2022-08-09T12:15:35Z</time>
      </trkpt>
      <trkpt lat="45.46211" lon="6.36717">
        <ele>2612</ele>
        <time>2022-08-09T12:15:50Z</time>
      </trkpt>
      <trkpt lat="45.46209" lon="6.36723">
        <ele>2612</ele>
        <time>2022-08-09T12:16:00Z</time>
      </trkpt>
      <trkpt lat="45.46214" lon="6.36729">
        <ele>2610</ele>
        <time>2022-08-09T12:16:11Z</time>
      </trkpt>
      <trkpt lat="45.46219" lon="6.36732">
        <ele>2607</ele>
        <time>2022-08-09T12:16:22Z</time>
      </trkpt>
      <trkpt lat="45.46222" lon="6.36735">
        <ele>2605</ele>
        <time>2022-08-09T12:16:38Z</time>
      </trkpt>
      <trkpt lat="45.46223" lon="6.36742">
        <ele>2604</ele>
        <time>2022-08-09T12:16:48Z</time>
      </trkpt>
      <trkpt lat="45.46221" lon="6.3675">
        <ele>2603</ele>
        <time>2022-08-09T12:16:58Z</time>
      </trkpt>
      <trkpt lat="45.46226" lon="6.36765">
        <ele>2600</ele>
        <time>2022-08-09T12:17:18Z</time>
      </trkpt>
      <trkpt lat="45.46231" lon="6.3677">
        <ele>2599</ele>
        <time>2022-08-09T12:17:28Z</time>
      </trkpt>
      <trkpt lat="45.46235" lon="6.3677">
        <ele>2597</ele>
        <time>2022-08-09T12:17:43Z</time>
      </trkpt>
      <trkpt lat="45.46239" lon="6.36769">
        <ele>2595</ele>
        <time>2022-08-09T12:18:19Z</time>
      </trkpt>
      <trkpt lat="45.46245" lon="6.36767">
        <ele>2594</ele>
        <time>2022-08-09T12:18:41Z</time>
      </trkpt>
      <trkpt lat="45.46249" lon="6.36764">
        <ele>2594</ele>
        <time>2022-08-09T12:19:01Z</time>
      </trkpt>
      <trkpt lat="45.46254" lon="6.36764">
        <ele>2592</ele>
        <time>2022-08-09T12:19:16Z</time>
      </trkpt>
      <trkpt lat="45.46259" lon="6.36768">
        <ele>2591</ele>
        <time>2022-08-09T12:19:36Z</time>
      </trkpt>
      <trkpt lat="45.46264" lon="6.36763">
        <ele>2589</ele>
        <time>2022-08-09T12:20:01Z</time>
      </trkpt>
      <trkpt lat="45.46269" lon="6.36762">
        <ele>2586</ele>
        <time>2022-08-09T12:20:45Z</time>
      </trkpt>
      <trkpt lat="45.46273" lon="6.36759">
        <ele>2585</ele>
        <time>2022-08-09T12:21:35Z</time>
      </trkpt>
      <trkpt lat="45.46275" lon="6.36751">
        <ele>2586</ele>
        <time>2022-08-09T12:22:05Z</time>
      </trkpt>
      <trkpt lat="45.46279" lon="6.36747">
        <ele>2586</ele>
        <time>2022-08-09T12:22:43Z</time>
      </trkpt>
      <trkpt lat="45.46283" lon="6.3675">
        <ele>2584</ele>
        <time>2022-08-09T12:23:28Z</time>
      </trkpt>
      <trkpt lat="45.46285" lon="6.36756">
        <ele>2581</ele>
        <time>2022-08-09T12:25:32Z</time>
      </trkpt>
      <trkpt lat="45.46288" lon="6.36751">
        <ele>2579</ele>
        <time>2022-08-09T12:26:17Z</time>
      </trkpt>
      <trkpt lat="45.46292" lon="6.36755">
        <ele>2576</ele>
        <time>2022-08-09T12:27:05Z</time>
      </trkpt>
      <trkpt lat="45.46291" lon="6.36761">
        <ele>2574</ele>
        <time>2022-08-09T12:27:40Z</time>
      </trkpt>
      <trkpt lat="45.46295" lon="6.36759">
        <ele>2573</ele>
        <time>2022-08-09T12:28:10Z</time>
      </trkpt>
      <trkpt lat="45.46294" lon="6.36766">
        <ele>2570</ele>
        <time>2022-08-09T12:28:52Z</time>
      </trkpt>
      <trkpt lat="45.46293" lon="6.36773">
        <ele>2569</ele>
        <time>2022-08-09T12:29:14Z</time>
      </trkpt>
      <trkpt lat="45.46298" lon="6.36774">
        <ele>2566</ele>
        <time>2022-08-09T12:29:59Z</time>
      </trkpt>
      <trkpt lat="45.46303" lon="6.36773">
        <ele>2565</ele>
        <time>2022-08-09T12:30:19Z</time>
      </trkpt>
      <trkpt lat="45.46306" lon="6.36768">
        <ele>2563</ele>
        <time>2022-08-09T12:30:34Z</time>
      </trkpt>
      <trkpt lat="45.46311" lon="6.36769">
        <ele>2562</ele>
        <time>2022-08-09T12:31:41Z</time>
      </trkpt>
      <trkpt lat="45.46313" lon="6.36763">
        <ele>2561</ele>
        <time>2022-08-09T12:33:02Z</time>
      </trkpt>
      <trkpt lat="45.46317" lon="6.36765">
        <ele>2560</ele>
        <time>2022-08-09T12:33:57Z</time>
      </trkpt>
      <trkpt lat="45.46324" lon="6.36756">
        <ele>2558</ele>
        <time>2022-08-09T12:34:37Z</time>
      </trkpt>
      <trkpt lat="45.46328" lon="6.36754">
        <ele>2557</ele>
        <time>2022-08-09T12:35:02Z</time>
      </trkpt>
      <trkpt lat="45.46332" lon="6.36754">
        <ele>2556</ele>
        <time>2022-08-09T12:35:13Z</time>
      </trkpt>
      <trkpt lat="45.46334" lon="6.3676">
        <ele>2556</ele>
        <time>2022-08-09T12:35:17Z</time>
      </trkpt>
      <trkpt lat="45.46339" lon="6.36764">
        <ele>2553</ele>
        <time>2022-08-09T12:35:24Z</time>
      </trkpt>
      <trkpt lat="45.46344" lon="6.3677">
        <ele>2549</ele>
        <time>2022-08-09T12:35:36Z</time>
      </trkpt>
      <trkpt lat="45.46347" lon="6.36776">
        <ele>2546</ele>
        <time>2022-08-09T12:36:06Z</time>
      </trkpt>
      <trkpt lat="45.4635" lon="6.36783">
        <ele>2544</ele>
        <time>2022-08-09T12:36:16Z</time>
      </trkpt>
      <trkpt lat="45.46355" lon="6.36789">
        <ele>2541</ele>
        <time>2022-08-09T12:36:26Z</time>
      </trkpt>
      <trkpt lat="45.46359" lon="6.36791">
        <ele>2538</ele>
        <time>2022-08-09T12:36:46Z</time>
      </trkpt>
      <trkpt lat="45.46375" lon="6.36804">
        <ele>2532</ele>
        <time>2022-08-09T12:37:18Z</time>
      </trkpt>
      <trkpt lat="45.46386" lon="6.36814">
        <ele>2528</ele>
        <time>2022-08-09T12:37:36Z</time>
      </trkpt>
      <trkpt lat="45.46392" lon="6.36819">
        <ele>2526</ele>
        <time>2022-08-09T12:37:46Z</time>
      </trkpt>
      <trkpt lat="45.46397" lon="6.36821">
        <ele>2526</ele>
        <time>2022-08-09T12:37:51Z</time>
      </trkpt>
      <trkpt lat="45.46411" lon="6.36832">
        <ele>2522</ele>
        <time>2022-08-09T12:38:10Z</time>
      </trkpt>
      <trkpt lat="45.46418" lon="6.36833">
        <ele>2521</ele>
        <time>2022-08-09T12:38:18Z</time>
      </trkpt>
      <trkpt lat="45.46424" lon="6.3684">
        <ele>2520</ele>
        <time>2022-08-09T12:38:28Z</time>
      </trkpt>
      <trkpt lat="45.46434" lon="6.36851">
        <ele>2518</ele>
        <time>2022-08-09T12:38:48Z</time>
      </trkpt>
      <trkpt lat="45.46437" lon="6.36857">
        <ele>2516</ele>
        <time>2022-08-09T12:38:58Z</time>
      </trkpt>
      <trkpt lat="45.46444" lon="6.3687">
        <ele>2514</ele>
        <time>2022-08-09T12:39:24Z</time>
      </trkpt>
      <trkpt lat="45.46445" lon="6.36877">
        <ele>2515</ele>
        <time>2022-08-09T12:39:55Z</time>
      </trkpt>
      <trkpt lat="45.4645" lon="6.3688">
        <ele>2515</ele>
        <time>2022-08-09T12:40:05Z</time>
      </trkpt>
      <trkpt lat="45.46451" lon="6.36895">
        <ele>2507</ele>
        <time>2022-08-09T12:41:00Z</time>
      </trkpt>
      <trkpt lat="45.46451" lon="6.36902">
        <ele>2506</ele>
        <time>2022-08-09T12:41:20Z</time>
      </trkpt>
      <trkpt lat="45.46451" lon="6.3691">
        <ele>2503</ele>
        <time>2022-08-09T12:41:38Z</time>
      </trkpt>
      <trkpt lat="45.46455" lon="6.36916">
        <ele>2500</ele>
        <time>2022-08-09T12:42:18Z</time>
      </trkpt>
      <trkpt lat="45.46454" lon="6.36923">
        <ele>2494</ele>
        <time>2022-08-09T12:43:03Z</time>
      </trkpt>
      <trkpt lat="45.46456" lon="6.36932">
        <ele>2490</ele>
        <time>2022-08-09T12:43:23Z</time>
      </trkpt>
      <trkpt lat="45.46461" lon="6.36936">
        <ele>2487</ele>
        <time>2022-08-09T12:43:44Z</time>
      </trkpt>
      <trkpt lat="45.46461" lon="6.36942">
        <ele>2483</ele>
        <time>2022-08-09T12:44:09Z</time>
      </trkpt>
      <trkpt lat="45.46464" lon="6.36948">
        <ele>2480</ele>
        <time>2022-08-09T12:44:34Z</time>
      </trkpt>
      <trkpt lat="45.46466" lon="6.36954">
        <ele>2477</ele>
        <time>2022-08-09T12:45:14Z</time>
      </trkpt>
      <trkpt lat="45.46472" lon="6.36955">
        <ele>2474</ele>
        <time>2022-08-09T12:45:46Z</time>
      </trkpt>
      <trkpt lat="45.46476" lon="6.36961">
        <ele>2470</ele>
        <time>2022-08-09T12:46:07Z</time>
      </trkpt>
      <trkpt lat="45.46478" lon="6.36969">
        <ele>2466</ele>
        <time>2022-08-09T12:46:27Z</time>
      </trkpt>
      <trkpt lat="45.4648" lon="6.36975">
        <ele>2462</ele>
        <time>2022-08-09T12:46:52Z</time>
      </trkpt>
      <trkpt lat="45.46477" lon="6.36981">
        <ele>2460</ele>
        <time>2022-08-09T12:47:07Z</time>
      </trkpt>
      <trkpt lat="45.46481" lon="6.36985">
        <ele>2458</ele>
        <time>2022-08-09T12:47:32Z</time>
      </trkpt>
      <trkpt lat="45.46481" lon="6.36993">
        <ele>2454</ele>
        <time>2022-08-09T12:47:48Z</time>
      </trkpt>
      <trkpt lat="45.46485" lon="6.36997">
        <ele>2452</ele>
        <time>2022-08-09T12:48:04Z</time>
      </trkpt>
      <trkpt lat="45.46483" lon="6.37005">
        <ele>2448</ele>
        <time>2022-08-09T12:48:24Z</time>
      </trkpt>
      <trkpt lat="45.46486" lon="6.37011">
        <ele>2446</ele>
        <time>2022-08-09T12:48:34Z</time>
      </trkpt>
      <trkpt lat="45.46487" lon="6.37018">
        <ele>2443</ele>
        <time>2022-08-09T12:48:54Z</time>
      </trkpt>
      <trkpt lat="45.46488" lon="6.37025">
        <ele>2440</ele>
        <time>2022-08-09T12:49:14Z</time>
      </trkpt>
      <trkpt lat="45.46485" lon="6.3704">
        <ele>2435</ele>
        <time>2022-08-09T12:49:39Z</time>
      </trkpt>
      <trkpt lat="45.46487" lon="6.37048">
        <ele>2432</ele>
        <time>2022-08-09T12:49:50Z</time>
      </trkpt>
      <trkpt lat="45.46486" lon="6.37057">
        <ele>2427</ele>
        <time>2022-08-09T12:50:17Z</time>
      </trkpt>
      <trkpt lat="45.4649" lon="6.37063">
        <ele>2424</ele>
        <time>2022-08-09T12:50:32Z</time>
      </trkpt>
      <trkpt lat="45.46488" lon="6.37069">
        <ele>2422</ele>
        <time>2022-08-09T12:50:42Z</time>
      </trkpt>
      <trkpt lat="45.4649" lon="6.37084">
        <ele>2416</ele>
        <time>2022-08-09T12:51:07Z</time>
      </trkpt>
      <trkpt lat="45.46491" lon="6.3709">
        <ele>2414</ele>
        <time>2022-08-09T12:51:22Z</time>
      </trkpt>
      <trkpt lat="45.46491" lon="6.37097">
        <ele>2411</ele>
        <time>2022-08-09T12:51:37Z</time>
      </trkpt>
      <trkpt lat="45.46494" lon="6.37102">
        <ele>2409</ele>
        <time>2022-08-09T12:52:15Z</time>
      </trkpt>
      <trkpt lat="45.46495" lon="6.37116">
        <ele>2403</ele>
        <time>2022-08-09T12:52:45Z</time>
      </trkpt>
      <trkpt lat="45.46497" lon="6.37133">
        <ele>2397</ele>
        <time>2022-08-09T12:53:15Z</time>
      </trkpt>
      <trkpt lat="45.46499" lon="6.37142">
        <ele>2394</ele>
        <time>2022-08-09T12:53:30Z</time>
      </trkpt>
      <trkpt lat="45.465" lon="6.37149">
        <ele>2391</ele>
        <time>2022-08-09T12:53:45Z</time>
      </trkpt>
      <trkpt lat="45.46499" lon="6.37167">
        <ele>2385</ele>
        <time>2022-08-09T12:54:16Z</time>
      </trkpt>
      <trkpt lat="45.465" lon="6.37174">
        <ele>2382</ele>
        <time>2022-08-09T12:54:31Z</time>
      </trkpt>
      <trkpt lat="45.46501" lon="6.37189">
        <ele>2376</ele>
        <time>2022-08-09T12:55:11Z</time>
      </trkpt>
      <trkpt lat="45.46502" lon="6.37195">
        <ele>2373</ele>
        <time>2022-08-09T12:55:36Z</time>
      </trkpt>
      <trkpt lat="45.46497" lon="6.37193">
        <ele>2372</ele>
        <time>2022-08-09T12:58:33Z</time>
      </trkpt>
      <trkpt lat="45.46492" lon="6.37195">
        <ele>2371</ele>
        <time>2022-08-09T12:58:53Z</time>
      </trkpt>
      <trkpt lat="45.46489" lon="6.37199">
        <ele>2369</ele>
        <time>2022-08-09T12:59:08Z</time>
      </trkpt>
      <trkpt lat="45.46486" lon="6.37203">
        <ele>2368</ele>
        <time>2022-08-09T12:59:18Z</time>
      </trkpt>
      <trkpt lat="45.46487" lon="6.3721">
        <ele>2367</ele>
        <time>2022-08-09T12:59:43Z</time>
      </trkpt>
      <trkpt lat="45.46488" lon="6.37224">
        <ele>2362</ele>
        <time>2022-08-09T13:00:19Z</time>
      </trkpt>
      <trkpt lat="45.46487" lon="6.37231">
        <ele>2360</ele>
        <time>2022-08-09T13:00:40Z</time>
      </trkpt>
      <trkpt lat="45.46496" lon="6.37239">
        <ele>2358</ele>
        <time>2022-08-09T13:01:00Z</time>
      </trkpt>
      <trkpt lat="45.46495" lon="6.37247">
        <ele>2356</ele>
        <time>2022-08-09T13:01:20Z</time>
      </trkpt>
      <trkpt lat="45.46497" lon="6.37252">
        <ele>2355</ele>
        <time>2022-08-09T13:01:55Z</time>
      </trkpt>
      <trkpt lat="45.46504" lon="6.37263">
        <ele>2354</ele>
        <time>2022-08-09T13:02:26Z</time>
      </trkpt>
      <trkpt lat="45.46508" lon="6.37271">
        <ele>2352</ele>
        <time>2022-08-09T13:02:38Z</time>
      </trkpt>
      <trkpt lat="45.46518" lon="6.3728">
        <ele>2348</ele>
        <time>2022-08-09T13:03:08Z</time>
      </trkpt>
      <trkpt lat="45.46522" lon="6.37283">
        <ele>2345</ele>
        <time>2022-08-09T13:03:28Z</time>
      </trkpt>
      <trkpt lat="45.46526" lon="6.37287">
        <ele>2343</ele>
        <time>2022-08-09T13:03:53Z</time>
      </trkpt>
      <trkpt lat="45.46529" lon="6.37292">
        <ele>2340</ele>
        <time>2022-08-09T13:04:18Z</time>
      </trkpt>
      <trkpt lat="45.46531" lon="6.37299">
        <ele>2338</ele>
        <time>2022-08-09T13:04:34Z</time>
      </trkpt>
      <trkpt lat="45.46534" lon="6.37305">
        <ele>2338</ele>
        <time>2022-08-09T13:04:46Z</time>
      </trkpt>
      <trkpt lat="45.46534" lon="6.37322">
        <ele>2337</ele>
        <time>2022-08-09T13:05:11Z</time>
      </trkpt>
      <trkpt lat="45.46534" lon="6.37336">
        <ele>2337</ele>
        <time>2022-08-09T13:05:41Z</time>
      </trkpt>
      <trkpt lat="45.46534" lon="6.37342">
        <ele>2336</ele>
        <time>2022-08-09T13:05:51Z</time>
      </trkpt>
      <trkpt lat="45.46531" lon="6.37355">
        <ele>2334</ele>
        <time>2022-08-09T13:06:11Z</time>
      </trkpt>
      <trkpt lat="45.46528" lon="6.37368">
        <ele>2329</ele>
        <time>2022-08-09T13:06:31Z</time>
      </trkpt>
      <trkpt lat="45.4652" lon="6.37381">
        <ele>2322</ele>
        <time>2022-08-09T13:07:03Z</time>
      </trkpt>
      <trkpt lat="45.46511" lon="6.37396">
        <ele>2318</ele>
        <time>2022-08-09T13:07:23Z</time>
      </trkpt>
      <trkpt lat="45.46508" lon="6.37407">
        <ele>2318</ele>
        <time>2022-08-09T13:07:33Z</time>
      </trkpt>
      <trkpt lat="45.46508" lon="6.37413">
        <ele>2317</ele>
        <time>2022-08-09T13:07:48Z</time>
      </trkpt>
      <trkpt lat="45.4651" lon="6.3742">
        <ele>2316</ele>
        <time>2022-08-09T13:08:08Z</time>
      </trkpt>
      <trkpt lat="45.4651" lon="6.37427">
        <ele>2315</ele>
        <time>2022-08-09T13:08:18Z</time>
      </trkpt>
      <trkpt lat="45.46511" lon="6.37433">
        <ele>2315</ele>
        <time>2022-08-09T13:08:28Z</time>
      </trkpt>
      <trkpt lat="45.46512" lon="6.37441">
        <ele>2315</ele>
        <time>2022-08-09T13:08:38Z</time>
      </trkpt>
      <trkpt lat="45.46512" lon="6.37451">
        <ele>2315</ele>
        <time>2022-08-09T13:08:56Z</time>
      </trkpt>
      <trkpt lat="45.46513" lon="6.37457">
        <ele>2314</ele>
        <time>2022-08-09T13:09:16Z</time>
      </trkpt>
      <trkpt lat="45.46509" lon="6.37462">
        <ele>2310</ele>
        <time>2022-08-09T13:09:36Z</time>
      </trkpt>
      <trkpt lat="45.46506" lon="6.37467">
        <ele>2307</ele>
        <time>2022-08-09T13:09:51Z</time>
      </trkpt>
      <trkpt lat="45.46502" lon="6.37471">
        <ele>2304</ele>
        <time>2022-08-09T13:10:06Z</time>
      </trkpt>
      <trkpt lat="45.46497" lon="6.37477">
        <ele>2301</ele>
        <time>2022-08-09T13:10:26Z</time>
      </trkpt>
      <trkpt lat="45.46494" lon="6.37484">
        <ele>2298</ele>
        <time>2022-08-09T13:10:41Z</time>
      </trkpt>
      <trkpt lat="45.46485" lon="6.37492">
        <ele>2292</ele>
        <time>2022-08-09T13:11:09Z</time>
      </trkpt>
      <trkpt lat="45.46486" lon="6.37499">
        <ele>2290</ele>
        <time>2022-08-09T13:11:19Z</time>
      </trkpt>
      <trkpt lat="45.46481" lon="6.375">
        <ele>2288</ele>
        <time>2022-08-09T13:11:29Z</time>
      </trkpt>
      <trkpt lat="45.4648" lon="6.37507">
        <ele>2286</ele>
        <time>2022-08-09T13:11:39Z</time>
      </trkpt>
      <trkpt lat="45.46483" lon="6.37512">
        <ele>2284</ele>
        <time>2022-08-09T13:11:49Z</time>
      </trkpt>
      <trkpt lat="45.46486" lon="6.37518">
        <ele>2282</ele>
        <time>2022-08-09T13:11:59Z</time>
      </trkpt>
      <trkpt lat="45.46487" lon="6.37525">
        <ele>2280</ele>
        <time>2022-08-09T13:12:09Z</time>
      </trkpt>
      <trkpt lat="45.46489" lon="6.37542">
        <ele>2278</ele>
        <time>2022-08-09T13:12:39Z</time>
      </trkpt>
      <trkpt lat="45.46494" lon="6.37554">
        <ele>2275</ele>
        <time>2022-08-09T13:13:00Z</time>
      </trkpt>
      <trkpt lat="45.46497" lon="6.37559">
        <ele>2274</ele>
        <time>2022-08-09T13:13:12Z</time>
      </trkpt>
      <trkpt lat="45.46498" lon="6.37566">
        <ele>2274</ele>
        <time>2022-08-09T13:13:22Z</time>
      </trkpt>
      <trkpt lat="45.46498" lon="6.37573">
        <ele>2273</ele>
        <time>2022-08-09T13:13:32Z</time>
      </trkpt>
      <trkpt lat="45.46501" lon="6.37578">
        <ele>2272</ele>
        <time>2022-08-09T13:13:42Z</time>
      </trkpt>
      <trkpt lat="45.46509" lon="6.37587">
        <ele>2267</ele>
        <time>2022-08-09T13:14:17Z</time>
      </trkpt>
      <trkpt lat="45.46514" lon="6.37589">
        <ele>2265</ele>
        <time>2022-08-09T13:14:37Z</time>
      </trkpt>
      <trkpt lat="45.46525" lon="6.3759">
        <ele>2264</ele>
        <time>2022-08-09T13:14:58Z</time>
      </trkpt>
      <trkpt lat="45.46528" lon="6.37596">
        <ele>2262</ele>
        <time>2022-08-09T13:15:10Z</time>
      </trkpt>
      <trkpt lat="45.46541" lon="6.37608">
        <ele>2257</ele>
        <time>2022-08-09T13:15:41Z</time>
      </trkpt>
      <trkpt lat="45.46547" lon="6.37622">
        <ele>2253</ele>
        <time>2022-08-09T13:16:01Z</time>
      </trkpt>
      <trkpt lat="45.46544" lon="6.37627">
        <ele>2249</ele>
        <time>2022-08-09T13:17:28Z</time>
      </trkpt>
      <trkpt lat="45.46542" lon="6.37635">
        <ele>2246</ele>
        <time>2022-08-09T13:17:43Z</time>
      </trkpt>
      <trkpt lat="45.46545" lon="6.37642">
        <ele>2244</ele>
        <time>2022-08-09T13:17:53Z</time>
      </trkpt>
      <trkpt lat="45.4654" lon="6.37643">
        <ele>2242</ele>
        <time>2022-08-09T13:18:03Z</time>
      </trkpt>
      <trkpt lat="45.46544" lon="6.37653">
        <ele>2240</ele>
        <time>2022-08-09T13:18:13Z</time>
      </trkpt>
      <trkpt lat="45.46545" lon="6.3766">
        <ele>2238</ele>
        <time>2022-08-09T13:18:20Z</time>
      </trkpt>
      <trkpt lat="45.46553" lon="6.37682">
        <ele>2233</ele>
        <time>2022-08-09T13:18:44Z</time>
      </trkpt>
      <trkpt lat="45.46561" lon="6.37687">
        <ele>2232</ele>
        <time>2022-08-09T13:18:53Z</time>
      </trkpt>
      <trkpt lat="45.46566" lon="6.37691">
        <ele>2232</ele>
        <time>2022-08-09T13:18:57Z</time>
      </trkpt>
      <trkpt lat="45.46566" lon="6.37697">
        <ele>2231</ele>
        <time>2022-08-09T13:19:02Z</time>
      </trkpt>
      <trkpt lat="45.4656" lon="6.37698">
        <ele>2229</ele>
        <time>2022-08-09T13:19:14Z</time>
      </trkpt>
      <trkpt lat="45.46539" lon="6.37691">
        <ele>2225</ele>
        <time>2022-08-09T13:19:37Z</time>
      </trkpt>
      <trkpt lat="45.46526" lon="6.37679">
        <ele>2223</ele>
        <time>2022-08-09T13:19:53Z</time>
      </trkpt>
      <trkpt lat="45.46521" lon="6.37675">
        <ele>2224</ele>
        <time>2022-08-09T13:20:02Z</time>
      </trkpt>
      <trkpt lat="45.46517" lon="6.37673">
        <ele>2224</ele>
        <time>2022-08-09T13:20:07Z</time>
      </trkpt>
      <trkpt lat="45.46511" lon="6.37675">
        <ele>2223</ele>
        <time>2022-08-09T13:20:13Z</time>
      </trkpt>
      <trkpt lat="45.4649" lon="6.3768">
        <ele>2222</ele>
        <time>2022-08-09T13:20:33Z</time>
      </trkpt>
      <trkpt lat="45.46486" lon="6.37683">
        <ele>2222</ele>
        <time>2022-08-09T13:20:38Z</time>
      </trkpt>
      <trkpt lat="45.46481" lon="6.37685">
        <ele>2222</ele>
        <time>2022-08-09T13:20:43Z</time>
      </trkpt>
      <trkpt lat="45.46476" lon="6.37686">
        <ele>2222</ele>
        <time>2022-08-09T13:20:48Z</time>
      </trkpt>
      <trkpt lat="45.46471" lon="6.37688">
        <ele>2221</ele>
        <time>2022-08-09T13:20:53Z</time>
      </trkpt>
      <trkpt lat="45.46466" lon="6.3769">
        <ele>2220</ele>
        <time>2022-08-09T13:21:00Z</time>
      </trkpt>
      <trkpt lat="45.46462" lon="6.37696">
        <ele>2219</ele>
        <time>2022-08-09T13:21:10Z</time>
      </trkpt>
      <trkpt lat="45.46458" lon="6.37698">
        <ele>2217</ele>
        <time>2022-08-09T13:21:16Z</time>
      </trkpt>
      <trkpt lat="45.46454" lon="6.37703">
        <ele>2215</ele>
        <time>2022-08-09T13:21:26Z</time>
      </trkpt>
      <trkpt lat="45.46451" lon="6.37707">
        <ele>2213</ele>
        <time>2022-08-09T13:21:37Z</time>
      </trkpt>
      <trkpt lat="45.46446" lon="6.37713">
        <ele>2210</ele>
        <time>2022-08-09T13:21:47Z</time>
      </trkpt>
      <trkpt lat="45.46441" lon="6.37717">
        <ele>2207</ele>
        <time>2022-08-09T13:21:57Z</time>
      </trkpt>
      <trkpt lat="45.46438" lon="6.37724">
        <ele>2205</ele>
        <time>2022-08-09T13:22:07Z</time>
      </trkpt>
      <trkpt lat="45.46427" lon="6.37734">
        <ele>2200</ele>
        <time>2022-08-09T13:22:27Z</time>
      </trkpt>
      <trkpt lat="45.46426" lon="6.37743">
        <ele>2197</ele>
        <time>2022-08-09T13:22:42Z</time>
      </trkpt>
      <trkpt lat="45.46422" lon="6.37748">
        <ele>2195</ele>
        <time>2022-08-09T13:22:52Z</time>
      </trkpt>
      <trkpt lat="45.4642" lon="6.37753">
        <ele>2193</ele>
        <time>2022-08-09T13:23:02Z</time>
      </trkpt>
      <trkpt lat="45.4642" lon="6.3776">
        <ele>2191</ele>
        <time>2022-08-09T13:23:12Z</time>
      </trkpt>
      <trkpt lat="45.46416" lon="6.37762">
        <ele>2188</ele>
        <time>2022-08-09T13:23:23Z</time>
      </trkpt>
      <trkpt lat="45.46417" lon="6.37771">
        <ele>2185</ele>
        <time>2022-08-09T13:23:40Z</time>
      </trkpt>
      <trkpt lat="45.46418" lon="6.37777">
        <ele>2183</ele>
        <time>2022-08-09T13:23:50Z</time>
      </trkpt>
      <trkpt lat="45.46411" lon="6.3778">
        <ele>2180</ele>
        <time>2022-08-09T13:24:05Z</time>
      </trkpt>
      <trkpt lat="45.46405" lon="6.37778">
        <ele>2178</ele>
        <time>2022-08-09T13:24:15Z</time>
      </trkpt>
      <trkpt lat="45.46405" lon="6.37786">
        <ele>2174</ele>
        <time>2022-08-09T13:24:35Z</time>
      </trkpt>
      <trkpt lat="45.46409" lon="6.37792">
        <ele>2170</ele>
        <time>2022-08-09T13:24:50Z</time>
      </trkpt>
      <trkpt lat="45.4641" lon="6.37802">
        <ele>2167</ele>
        <time>2022-08-09T13:25:05Z</time>
      </trkpt>
      <trkpt lat="45.46414" lon="6.3781">
        <ele>2164</ele>
        <time>2022-08-09T13:25:15Z</time>
      </trkpt>
      <trkpt lat="45.46418" lon="6.37816">
        <ele>2162</ele>
        <time>2022-08-09T13:25:25Z</time>
      </trkpt>
      <trkpt lat="45.46422" lon="6.37821">
        <ele>2160</ele>
        <time>2022-08-09T13:25:36Z</time>
      </trkpt>
      <trkpt lat="45.4643" lon="6.3783">
        <ele>2155</ele>
        <time>2022-08-09T13:25:57Z</time>
      </trkpt>
      <trkpt lat="45.46425" lon="6.37834">
        <ele>2152</ele>
        <time>2022-08-09T13:26:17Z</time>
      </trkpt>
      <trkpt lat="45.46417" lon="6.37839">
        <ele>2150</ele>
        <time>2022-08-09T13:26:27Z</time>
      </trkpt>
      <trkpt lat="45.46411" lon="6.3784">
        <ele>2150</ele>
        <time>2022-08-09T13:26:36Z</time>
      </trkpt>
      <trkpt lat="45.4641" lon="6.37851">
        <ele>2148</ele>
        <time>2022-08-09T13:26:46Z</time>
      </trkpt>
      <trkpt lat="45.46406" lon="6.37855">
        <ele>2147</ele>
        <time>2022-08-09T13:26:56Z</time>
      </trkpt>
      <trkpt lat="45.46402" lon="6.37852">
        <ele>2145</ele>
        <time>2022-08-09T13:27:01Z</time>
      </trkpt>
      <trkpt lat="45.46397" lon="6.37849">
        <ele>2145</ele>
        <time>2022-08-09T13:27:08Z</time>
      </trkpt>
      <trkpt lat="45.46395" lon="6.37858">
        <ele>2143</ele>
        <time>2022-08-09T13:27:18Z</time>
      </trkpt>
      <trkpt lat="45.46396" lon="6.37864">
        <ele>2142</ele>
        <time>2022-08-09T13:27:23Z</time>
      </trkpt>
      <trkpt lat="45.46394" lon="6.37871">
        <ele>2141</ele>
        <time>2022-08-09T13:27:30Z</time>
      </trkpt>
      <trkpt lat="45.46396" lon="6.37877">
        <ele>2140</ele>
        <time>2022-08-09T13:27:36Z</time>
      </trkpt>
      <trkpt lat="45.46405" lon="6.37891">
        <ele>2134</ele>
        <time>2022-08-09T13:27:57Z</time>
      </trkpt>
      <trkpt lat="45.46409" lon="6.37897">
        <ele>2132</ele>
        <time>2022-08-09T13:28:07Z</time>
      </trkpt>
      <trkpt lat="45.46414" lon="6.37906">
        <ele>2129</ele>
        <time>2022-08-09T13:28:17Z</time>
      </trkpt>
      <trkpt lat="45.46417" lon="6.37914">
        <ele>2127</ele>
        <time>2022-08-09T13:28:27Z</time>
      </trkpt>
      <trkpt lat="45.4642" lon="6.37921">
        <ele>2126</ele>
        <time>2022-08-09T13:28:42Z</time>
      </trkpt>
      <trkpt lat="45.46422" lon="6.37927">
        <ele>2124</ele>
        <time>2022-08-09T13:28:52Z</time>
      </trkpt>
      <trkpt lat="45.46416" lon="6.37931">
        <ele>2122</ele>
        <time>2022-08-09T13:29:02Z</time>
      </trkpt>
      <trkpt lat="45.46414" lon="6.37936">
        <ele>2119</ele>
        <time>2022-08-09T13:29:12Z</time>
      </trkpt>
      <trkpt lat="45.46408" lon="6.3794">
        <ele>2117</ele>
        <time>2022-08-09T13:29:22Z</time>
      </trkpt>
      <trkpt lat="45.46405" lon="6.37943">
        <ele>2115</ele>
        <time>2022-08-09T13:29:43Z</time>
      </trkpt>
      <trkpt lat="45.46409" lon="6.37951">
        <ele>2112</ele>
        <time>2022-08-09T13:29:54Z</time>
      </trkpt>
      <trkpt lat="45.46415" lon="6.37955">
        <ele>2111</ele>
        <time>2022-08-09T13:30:04Z</time>
      </trkpt>
      <trkpt lat="45.46419" lon="6.37965">
        <ele>2109</ele>
        <time>2022-08-09T13:30:14Z</time>
      </trkpt>
      <trkpt lat="45.4642" lon="6.37971">
        <ele>2108</ele>
        <time>2022-08-09T13:30:21Z</time>
      </trkpt>
      <trkpt lat="45.4642" lon="6.37977">
        <ele>2105</ele>
        <time>2022-08-09T13:30:36Z</time>
      </trkpt>
      <trkpt lat="45.46419" lon="6.37982">
        <ele>2102</ele>
        <time>2022-08-09T13:30:51Z</time>
      </trkpt>
      <trkpt lat="45.4642" lon="6.37988">
        <ele>2100</ele>
        <time>2022-08-09T13:31:26Z</time>
      </trkpt>
      <trkpt lat="45.4642" lon="6.38006">
        <ele>2096</ele>
        <time>2022-08-09T13:31:52Z</time>
      </trkpt>
      <trkpt lat="45.46423" lon="6.38011">
        <ele>2094</ele>
        <time>2022-08-09T13:31:58Z</time>
      </trkpt>
      <trkpt lat="45.46423" lon="6.3802">
        <ele>2092</ele>
        <time>2022-08-09T13:32:09Z</time>
      </trkpt>
      <trkpt lat="45.46418" lon="6.38023">
        <ele>2090</ele>
        <time>2022-08-09T13:32:19Z</time>
      </trkpt>
      <trkpt lat="45.46417" lon="6.38031">
        <ele>2088</ele>
        <time>2022-08-09T13:32:29Z</time>
      </trkpt>
      <trkpt lat="45.4642" lon="6.3804">
        <ele>2087</ele>
        <time>2022-08-09T13:32:39Z</time>
      </trkpt>
      <trkpt lat="45.46421" lon="6.38048">
        <ele>2084</ele>
        <time>2022-08-09T13:32:49Z</time>
      </trkpt>
      <trkpt lat="45.46423" lon="6.38055">
        <ele>2080</ele>
        <time>2022-08-09T13:33:09Z</time>
      </trkpt>
      <trkpt lat="45.46427" lon="6.38063">
        <ele>2076</ele>
        <time>2022-08-09T13:33:29Z</time>
      </trkpt>
      <trkpt lat="45.46424" lon="6.38072">
        <ele>2075</ele>
        <time>2022-08-09T13:33:39Z</time>
      </trkpt>
      <trkpt lat="45.46425" lon="6.38078">
        <ele>2073</ele>
        <time>2022-08-09T13:33:49Z</time>
      </trkpt>
      <trkpt lat="45.46421" lon="6.38089">
        <ele>2070</ele>
        <time>2022-08-09T13:34:01Z</time>
      </trkpt>
      <trkpt lat="45.46416" lon="6.381">
        <ele>2069</ele>
        <time>2022-08-09T13:34:11Z</time>
      </trkpt>
      <trkpt lat="45.46411" lon="6.38103">
        <ele>2067</ele>
        <time>2022-08-09T13:34:23Z</time>
      </trkpt>
      <trkpt lat="45.46407" lon="6.38118">
        <ele>2063</ele>
        <time>2022-08-09T13:34:58Z</time>
      </trkpt>
      <trkpt lat="45.46405" lon="6.38128">
        <ele>2061</ele>
        <time>2022-08-09T13:35:08Z</time>
      </trkpt>
      <trkpt lat="45.46402" lon="6.38135">
        <ele>2059</ele>
        <time>2022-08-09T13:35:19Z</time>
      </trkpt>
      <trkpt lat="45.46404" lon="6.38155">
        <ele>2054</ele>
        <time>2022-08-09T13:35:44Z</time>
      </trkpt>
      <trkpt lat="45.46401" lon="6.3816">
        <ele>2052</ele>
        <time>2022-08-09T13:35:54Z</time>
      </trkpt>
      <trkpt lat="45.46397" lon="6.38165">
        <ele>2049</ele>
        <time>2022-08-09T13:36:06Z</time>
      </trkpt>
      <trkpt lat="45.4639" lon="6.38169">
        <ele>2047</ele>
        <time>2022-08-09T13:36:17Z</time>
      </trkpt>
      <trkpt lat="45.46392" lon="6.38179">
        <ele>2044</ele>
        <time>2022-08-09T13:36:28Z</time>
      </trkpt>
      <trkpt lat="45.46389" lon="6.38204">
        <ele>2038</ele>
        <time>2022-08-09T13:36:58Z</time>
      </trkpt>
      <trkpt lat="45.46386" lon="6.38211">
        <ele>2036</ele>
        <time>2022-08-09T13:37:08Z</time>
      </trkpt>
      <trkpt lat="45.46384" lon="6.38223">
        <ele>2034</ele>
        <time>2022-08-09T13:37:18Z</time>
      </trkpt>
      <trkpt lat="45.46382" lon="6.38228">
        <ele>2033</ele>
        <time>2022-08-09T13:37:25Z</time>
      </trkpt>
      <trkpt lat="45.46381" lon="6.38239">
        <ele>2031</ele>
        <time>2022-08-09T13:37:35Z</time>
      </trkpt>
      <trkpt lat="45.46383" lon="6.38246">
        <ele>2030</ele>
        <time>2022-08-09T13:37:40Z</time>
      </trkpt>
      <trkpt lat="45.46381" lon="6.38252">
        <ele>2029</ele>
        <time>2022-08-09T13:37:47Z</time>
      </trkpt>
      <trkpt lat="45.46379" lon="6.38267">
        <ele>2026</ele>
        <time>2022-08-09T13:38:03Z</time>
      </trkpt>
      <trkpt lat="45.46383" lon="6.38287">
        <ele>2022</ele>
        <time>2022-08-09T13:38:25Z</time>
      </trkpt>
      <trkpt lat="45.46383" lon="6.38295">
        <ele>2020</ele>
        <time>2022-08-09T13:38:35Z</time>
      </trkpt>
      <trkpt lat="45.46384" lon="6.38314">
        <ele>2016</ele>
        <time>2022-08-09T13:38:55Z</time>
      </trkpt>
      <trkpt lat="45.46383" lon="6.38324">
        <ele>2014</ele>
        <time>2022-08-09T13:39:05Z</time>
      </trkpt>
      <trkpt lat="45.4638" lon="6.38329">
        <ele>2013</ele>
        <time>2022-08-09T13:39:15Z</time>
      </trkpt>
      <trkpt lat="45.46377" lon="6.38342">
        <ele>2008</ele>
        <time>2022-08-09T13:40:16Z</time>
      </trkpt>
      <trkpt lat="45.46375" lon="6.38349">
        <ele>2005</ele>
        <time>2022-08-09T13:40:33Z</time>
      </trkpt>
      <trkpt lat="45.46375" lon="6.38358">
        <ele>2003</ele>
        <time>2022-08-09T13:40:48Z</time>
      </trkpt>
      <trkpt lat="45.46373" lon="6.38365">
        <ele>2000</ele>
        <time>2022-08-09T13:40:58Z</time>
      </trkpt>
      <trkpt lat="45.46376" lon="6.38371">
        <ele>1999</ele>
        <time>2022-08-09T13:41:08Z</time>
      </trkpt>
      <trkpt lat="45.46379" lon="6.38379">
        <ele>1999</ele>
        <time>2022-08-09T13:41:18Z</time>
      </trkpt>
      <trkpt lat="45.46381" lon="6.38386">
        <ele>1998</ele>
        <time>2022-08-09T13:41:28Z</time>
      </trkpt>
      <trkpt lat="45.46378" lon="6.38391">
        <ele>1994</ele>
        <time>2022-08-09T13:41:48Z</time>
      </trkpt>
      <trkpt lat="45.46376" lon="6.38399">
        <ele>1991</ele>
        <time>2022-08-09T13:42:03Z</time>
      </trkpt>
      <trkpt lat="45.46371" lon="6.384">
        <ele>1989</ele>
        <time>2022-08-09T13:42:19Z</time>
      </trkpt>
      <trkpt lat="45.46367" lon="6.38403">
        <ele>1986</ele>
        <time>2022-08-09T13:42:30Z</time>
      </trkpt>
      <trkpt lat="45.4636" lon="6.38415">
        <ele>1982</ele>
        <time>2022-08-09T13:42:50Z</time>
      </trkpt>
      <trkpt lat="45.46351" lon="6.3842">
        <ele>1978</ele>
        <time>2022-08-09T13:43:10Z</time>
      </trkpt>
      <trkpt lat="45.46349" lon="6.38427">
        <ele>1975</ele>
        <time>2022-08-09T13:43:20Z</time>
      </trkpt>
      <trkpt lat="45.46343" lon="6.38437">
        <ele>1972</ele>
        <time>2022-08-09T13:43:40Z</time>
      </trkpt>
      <trkpt lat="45.46341" lon="6.38446">
        <ele>1969</ele>
        <time>2022-08-09T13:43:55Z</time>
      </trkpt>
      <trkpt lat="45.46336" lon="6.3846">
        <ele>1965</ele>
        <time>2022-08-09T13:44:15Z</time>
      </trkpt>
      <trkpt lat="45.46334" lon="6.38477">
        <ele>1962</ele>
        <time>2022-08-09T13:44:32Z</time>
      </trkpt>
      <trkpt lat="45.46335" lon="6.38484">
        <ele>1962</ele>
        <time>2022-08-09T13:44:37Z</time>
      </trkpt>
      <trkpt lat="45.46334" lon="6.38506">
        <ele>1959</ele>
        <time>2022-08-09T13:44:55Z</time>
      </trkpt>
      <trkpt lat="45.46336" lon="6.38519">
        <ele>1957</ele>
        <time>2022-08-09T13:45:07Z</time>
      </trkpt>
      <trkpt lat="45.46336" lon="6.38525">
        <ele>1955</ele>
        <time>2022-08-09T13:45:17Z</time>
      </trkpt>
      <trkpt lat="45.46332" lon="6.38533">
        <ele>1953</ele>
        <time>2022-08-09T13:45:37Z</time>
      </trkpt>
      <trkpt lat="45.46311" lon="6.38548">
        <ele>1946</ele>
        <time>2022-08-09T13:46:09Z</time>
      </trkpt>
      <trkpt lat="45.46304" lon="6.3855">
        <ele>1944</ele>
        <time>2022-08-09T13:46:19Z</time>
      </trkpt>
      <trkpt lat="45.463" lon="6.38559">
        <ele>1942</ele>
        <time>2022-08-09T13:46:30Z</time>
      </trkpt>
      <trkpt lat="45.463" lon="6.38569">
        <ele>1940</ele>
        <time>2022-08-09T13:46:41Z</time>
      </trkpt>
      <trkpt lat="45.46295" lon="6.38586">
        <ele>1937</ele>
        <time>2022-08-09T13:46:58Z</time>
      </trkpt>
      <trkpt lat="45.46292" lon="6.38597">
        <ele>1936</ele>
        <time>2022-08-09T13:47:08Z</time>
      </trkpt>
      <trkpt lat="45.46286" lon="6.38605">
        <ele>1934</ele>
        <time>2022-08-09T13:47:19Z</time>
      </trkpt>
      <trkpt lat="45.46279" lon="6.38622">
        <ele>1930</ele>
        <time>2022-08-09T13:47:39Z</time>
      </trkpt>
      <trkpt lat="45.46279" lon="6.38629">
        <ele>1930</ele>
        <time>2022-08-09T13:47:44Z</time>
      </trkpt>
      <trkpt lat="45.46276" lon="6.38637">
        <ele>1928</ele>
        <time>2022-08-09T13:47:54Z</time>
      </trkpt>
      <trkpt lat="45.46275" lon="6.38645">
        <ele>1926</ele>
        <time>2022-08-09T13:48:04Z</time>
      </trkpt>
      <trkpt lat="45.46272" lon="6.38653">
        <ele>1925</ele>
        <time>2022-08-09T13:48:14Z</time>
      </trkpt>
      <trkpt lat="45.46271" lon="6.38662">
        <ele>1923</ele>
        <time>2022-08-09T13:48:24Z</time>
      </trkpt>
      <trkpt lat="45.46268" lon="6.38669">
        <ele>1921</ele>
        <time>2022-08-09T13:48:35Z</time>
      </trkpt>
      <trkpt lat="45.46263" lon="6.38687">
        <ele>1917</ele>
        <time>2022-08-09T13:48:57Z</time>
      </trkpt>
      <trkpt lat="45.46258" lon="6.38695">
        <ele>1914</ele>
        <time>2022-08-09T13:49:07Z</time>
      </trkpt>
      <trkpt lat="45.4626" lon="6.38706">
        <ele>1913</ele>
        <time>2022-08-09T13:49:18Z</time>
      </trkpt>
      <trkpt lat="45.46259" lon="6.38713">
        <ele>1912</ele>
        <time>2022-08-09T13:49:25Z</time>
      </trkpt>
      <trkpt lat="45.4626" lon="6.38719">
        <ele>1911</ele>
        <time>2022-08-09T13:49:35Z</time>
      </trkpt>
      <trkpt lat="45.46259" lon="6.38728">
        <ele>1909</ele>
        <time>2022-08-09T13:50:25Z</time>
      </trkpt>
      <trkpt lat="45.46262" lon="6.38742">
        <ele>1906</ele>
        <time>2022-08-09T13:50:46Z</time>
      </trkpt>
      <trkpt lat="45.46261" lon="6.38753">
        <ele>1903</ele>
        <time>2022-08-09T13:50:58Z</time>
      </trkpt>
      <trkpt lat="45.46261" lon="6.38764">
        <ele>1902</ele>
        <time>2022-08-09T13:51:08Z</time>
      </trkpt>
      <trkpt lat="45.46265" lon="6.38772">
        <ele>1900</ele>
        <time>2022-08-09T13:51:19Z</time>
      </trkpt>
      <trkpt lat="45.46267" lon="6.38786">
        <ele>1896</ele>
        <time>2022-08-09T13:51:35Z</time>
      </trkpt>
      <trkpt lat="45.46267" lon="6.38802">
        <ele>1894</ele>
        <time>2022-08-09T13:51:48Z</time>
      </trkpt>
      <trkpt lat="45.4626" lon="6.38818">
        <ele>1891</ele>
        <time>2022-08-09T13:52:05Z</time>
      </trkpt>
      <trkpt lat="45.46258" lon="6.38829">
        <ele>1891</ele>
        <time>2022-08-09T13:52:15Z</time>
      </trkpt>
      <trkpt lat="45.46257" lon="6.38837">
        <ele>1891</ele>
        <time>2022-08-09T13:52:22Z</time>
      </trkpt>
      <trkpt lat="45.46259" lon="6.38844">
        <ele>1891</ele>
        <time>2022-08-09T13:52:29Z</time>
      </trkpt>
      <trkpt lat="45.4626" lon="6.3885">
        <ele>1891</ele>
        <time>2022-08-09T13:52:35Z</time>
      </trkpt>
      <trkpt lat="45.46259" lon="6.38859">
        <ele>1890</ele>
        <time>2022-08-09T13:52:46Z</time>
      </trkpt>
      <trkpt lat="45.46258" lon="6.38865">
        <ele>1890</ele>
        <time>2022-08-09T13:52:52Z</time>
      </trkpt>
      <trkpt lat="45.46256" lon="6.38877">
        <ele>1889</ele>
        <time>2022-08-09T13:53:03Z</time>
      </trkpt>
      <trkpt lat="45.46255" lon="6.38884">
        <ele>1889</ele>
        <time>2022-08-09T13:53:10Z</time>
      </trkpt>
      <trkpt lat="45.46251" lon="6.3889">
        <ele>1888</ele>
        <time>2022-08-09T13:53:20Z</time>
      </trkpt>
      <trkpt lat="45.46249" lon="6.389">
        <ele>1888</ele>
        <time>2022-08-09T13:53:30Z</time>
      </trkpt>
      <trkpt lat="45.46244" lon="6.38905">
        <ele>1887</ele>
        <time>2022-08-09T13:53:40Z</time>
      </trkpt>
      <trkpt lat="45.46236" lon="6.38923">
        <ele>1884</ele>
        <time>2022-08-09T13:54:25Z</time>
      </trkpt>
      <trkpt lat="45.46232" lon="6.38928">
        <ele>1884</ele>
        <time>2022-08-09T13:54:31Z</time>
      </trkpt>
      <trkpt lat="45.46228" lon="6.3894">
        <ele>1883</ele>
        <time>2022-08-09T13:54:41Z</time>
      </trkpt>
      <trkpt lat="45.46223" lon="6.38948">
        <ele>1883</ele>
        <time>2022-08-09T13:54:49Z</time>
      </trkpt>
      <trkpt lat="45.46219" lon="6.38956">
        <ele>1883</ele>
        <time>2022-08-09T13:54:58Z</time>
      </trkpt>
      <trkpt lat="45.46215" lon="6.38968">
        <ele>1882</ele>
        <time>2022-08-09T13:55:10Z</time>
      </trkpt>
      <trkpt lat="45.4622" lon="6.38986">
        <ele>1880</ele>
        <time>2022-08-09T13:55:30Z</time>
      </trkpt>
      <trkpt lat="45.46218" lon="6.38977">
        <ele>1880</ele>
        <time>2022-08-09T13:55:50Z</time>
      </trkpt>
      <trkpt lat="45.46217" lon="6.3897">
        <ele>1881</ele>
        <time>2022-08-09T13:56:00Z</time>
      </trkpt>
      <trkpt lat="45.46218" lon="6.38962">
        <ele>1883</ele>
        <time>2022-08-09T13:56:10Z</time>
      </trkpt>
      <trkpt lat="45.46219" lon="6.38951">
        <ele>1883</ele>
        <time>2022-08-09T13:56:20Z</time>
      </trkpt>
      <trkpt lat="45.4622" lon="6.38939">
        <ele>1880</ele>
        <time>2022-08-09T13:56:31Z</time>
      </trkpt>
      <trkpt lat="45.46218" lon="6.3893">
        <ele>1878</ele>
        <time>2022-08-09T13:56:41Z</time>
      </trkpt>
      <trkpt lat="45.46217" lon="6.38921">
        <ele>1877</ele>
        <time>2022-08-09T13:56:51Z</time>
      </trkpt>
      <trkpt lat="45.46219" lon="6.38911">
        <ele>1876</ele>
        <time>2022-08-09T13:57:02Z</time>
      </trkpt>
      <trkpt lat="45.46217" lon="6.38902">
        <ele>1874</ele>
        <time>2022-08-09T13:57:14Z</time>
      </trkpt>
      <trkpt lat="45.46213" lon="6.38893">
        <ele>1871</ele>
        <time>2022-08-09T13:57:24Z</time>
      </trkpt>
      <trkpt lat="45.46208" lon="6.38872">
        <ele>1868</ele>
        <time>2022-08-09T13:57:57Z</time>
      </trkpt>
      <trkpt lat="45.46209" lon="6.38865">
        <ele>1867</ele>
        <time>2022-08-09T13:58:07Z</time>
      </trkpt>
      <trkpt lat="45.46205" lon="6.38856">
        <ele>1865</ele>
        <time>2022-08-09T13:58:17Z</time>
      </trkpt>
      <trkpt lat="45.46199" lon="6.38854">
        <ele>1863</ele>
        <time>2022-08-09T13:58:27Z</time>
      </trkpt>
      <trkpt lat="45.46193" lon="6.38857">
        <ele>1861</ele>
        <time>2022-08-09T13:58:37Z</time>
      </trkpt>
      <trkpt lat="45.46188" lon="6.38862">
        <ele>1859</ele>
        <time>2022-08-09T13:58:47Z</time>
      </trkpt>
      <trkpt lat="45.46183" lon="6.38864">
        <ele>1856</ele>
        <time>2022-08-09T13:58:57Z</time>
      </trkpt>
      <trkpt lat="45.46172" lon="6.38871">
        <ele>1852</ele>
        <time>2022-08-09T13:59:20Z</time>
      </trkpt>
      <trkpt lat="45.46166" lon="6.38871">
        <ele>1850</ele>
        <time>2022-08-09T13:59:30Z</time>
      </trkpt>
      <trkpt lat="45.46161" lon="6.38875">
        <ele>1848</ele>
        <time>2022-08-09T13:59:40Z</time>
      </trkpt>
      <trkpt lat="45.46143" lon="6.38882">
        <ele>1841</ele>
        <time>2022-08-09T14:00:10Z</time>
      </trkpt>
      <trkpt lat="45.46131" lon="6.38884">
        <ele>1837</ele>
        <time>2022-08-09T14:00:30Z</time>
      </trkpt>
      <trkpt lat="45.46113" lon="6.38897">
        <ele>1830</ele>
        <time>2022-08-09T14:01:00Z</time>
      </trkpt>
      <trkpt lat="45.46107" lon="6.38901">
        <ele>1827</ele>
        <time>2022-08-09T14:01:11Z</time>
      </trkpt>
      <trkpt lat="45.46087" lon="6.3891">
        <ele>1821</ele>
        <time>2022-08-09T14:01:43Z</time>
      </trkpt>
      <trkpt lat="45.46077" lon="6.3891">
        <ele>1817</ele>
        <time>2022-08-09T14:02:03Z</time>
      </trkpt>
      <trkpt lat="45.4607" lon="6.38912">
        <ele>1815</ele>
        <time>2022-08-09T14:02:13Z</time>
      </trkpt>
      <trkpt lat="45.46065" lon="6.38914">
        <ele>1814</ele>
        <time>2022-08-09T14:02:23Z</time>
      </trkpt>
      <trkpt lat="45.4606" lon="6.3891">
        <ele>1812</ele>
        <time>2022-08-09T14:02:33Z</time>
      </trkpt>
      <trkpt lat="45.46047" lon="6.38912">
        <ele>1808</ele>
        <time>2022-08-09T14:02:53Z</time>
      </trkpt>
      <trkpt lat="45.46029" lon="6.38926">
        <ele>1802</ele>
        <time>2022-08-09T14:03:24Z</time>
      </trkpt>
      <trkpt lat="45.46014" lon="6.38942">
        <ele>1795</ele>
        <time>2022-08-09T14:03:55Z</time>
      </trkpt>
      <trkpt lat="45.46009" lon="6.38947">
        <ele>1794</ele>
        <time>2022-08-09T14:04:05Z</time>
      </trkpt>
      <trkpt lat="45.46005" lon="6.38954">
        <ele>1792</ele>
        <time>2022-08-09T14:04:15Z</time>
      </trkpt>
      <trkpt lat="45.45995" lon="6.38959">
        <ele>1788</ele>
        <time>2022-08-09T14:04:35Z</time>
      </trkpt>
      <trkpt lat="45.4599" lon="6.38963">
        <ele>1786</ele>
        <time>2022-08-09T14:04:45Z</time>
      </trkpt>
      <trkpt lat="45.45978" lon="6.38964">
        <ele>1781</ele>
        <time>2022-08-09T14:05:05Z</time>
      </trkpt>
      <trkpt lat="45.45972" lon="6.38963">
        <ele>1779</ele>
        <time>2022-08-09T14:05:15Z</time>
      </trkpt>
      <trkpt lat="45.45956" lon="6.38979">
        <ele>1773</ele>
        <time>2022-08-09T14:05:47Z</time>
      </trkpt>
      <trkpt lat="45.4594" lon="6.38988">
        <ele>1768</ele>
        <time>2022-08-09T14:06:17Z</time>
      </trkpt>
      <trkpt lat="45.45936" lon="6.38991">
        <ele>1766</ele>
        <time>2022-08-09T14:06:27Z</time>
      </trkpt>
      <trkpt lat="45.45932" lon="6.38996">
        <ele>1764</ele>
        <time>2022-08-09T14:06:37Z</time>
      </trkpt>
      <trkpt lat="45.45929" lon="6.39006">
        <ele>1761</ele>
        <time>2022-08-09T14:06:47Z</time>
      </trkpt>
      <trkpt lat="45.45926" lon="6.39031">
        <ele>1757</ele>
        <time>2022-08-09T14:07:13Z</time>
      </trkpt>
      <trkpt lat="45.45924" lon="6.39039">
        <ele>1755</ele>
        <time>2022-08-09T14:07:39Z</time>
      </trkpt>
      <trkpt lat="45.45923" lon="6.39049">
        <ele>1753</ele>
        <time>2022-08-09T14:07:49Z</time>
      </trkpt>
      <trkpt lat="45.4592" lon="6.39058">
        <ele>1751</ele>
        <time>2022-08-09T14:07:59Z</time>
      </trkpt>
      <trkpt lat="45.45919" lon="6.39064">
        <ele>1750</ele>
        <time>2022-08-09T14:08:04Z</time>
      </trkpt>
      <trkpt lat="45.45911" lon="6.39093">
        <ele>1745</ele>
        <time>2022-08-09T14:08:34Z</time>
      </trkpt>
      <trkpt lat="45.45908" lon="6.391">
        <ele>1743</ele>
        <time>2022-08-09T14:08:44Z</time>
      </trkpt>
      <trkpt lat="45.45895" lon="6.39118">
        <ele>1737</ele>
        <time>2022-08-09T14:09:14Z</time>
      </trkpt>
      <trkpt lat="45.45879" lon="6.39131">
        <ele>1728</ele>
        <time>2022-08-09T14:09:46Z</time>
      </trkpt>
      <trkpt lat="45.45874" lon="6.39137">
        <ele>1726</ele>
        <time>2022-08-09T14:09:57Z</time>
      </trkpt>
      <trkpt lat="45.45862" lon="6.39147">
        <ele>1721</ele>
        <time>2022-08-09T14:10:18Z</time>
      </trkpt>
      <trkpt lat="45.45855" lon="6.39148">
        <ele>1718</ele>
        <time>2022-08-09T14:10:29Z</time>
      </trkpt>
      <trkpt lat="45.45853" lon="6.39155">
        <ele>1717</ele>
        <time>2022-08-09T14:10:34Z</time>
      </trkpt>
      <trkpt lat="45.45854" lon="6.39198">
        <ele>1711</ele>
        <time>2022-08-09T14:11:11Z</time>
      </trkpt>
      <trkpt lat="45.45855" lon="6.39238">
        <ele>1706</ele>
        <time>2022-08-09T14:11:44Z</time>
      </trkpt>
      <trkpt lat="45.45856" lon="6.39247">
        <ele>1705</ele>
        <time>2022-08-09T14:11:51Z</time>
      </trkpt>
      <trkpt lat="45.45857" lon="6.39253">
        <ele>1705</ele>
        <time>2022-08-09T14:11:56Z</time>
      </trkpt>
      <trkpt lat="45.45858" lon="6.39259">
        <ele>1704</ele>
        <time>2022-08-09T14:12:01Z</time>
      </trkpt>
      <trkpt lat="45.45862" lon="6.39272">
        <ele>1703</ele>
        <time>2022-08-09T14:12:13Z</time>
      </trkpt>
      <trkpt lat="45.45874" lon="6.39293">
        <ele>1699</ele>
        <time>2022-08-09T14:12:35Z</time>
      </trkpt>
      <trkpt lat="45.4588" lon="6.393">
        <ele>1697</ele>
        <time>2022-08-09T14:12:45Z</time>
      </trkpt>
      <trkpt lat="45.45885" lon="6.39312">
        <ele>1696</ele>
        <time>2022-08-09T14:12:55Z</time>
      </trkpt>
      <trkpt lat="45.45888" lon="6.39348">
        <ele>1690</ele>
        <time>2022-08-09T14:13:25Z</time>
      </trkpt>
      <trkpt lat="45.45886" lon="6.39357">
        <ele>1689</ele>
        <time>2022-08-09T14:13:35Z</time>
      </trkpt>
      <trkpt lat="45.45883" lon="6.39365">
        <ele>1687</ele>
        <time>2022-08-09T14:13:46Z</time>
      </trkpt>
      <trkpt lat="45.45879" lon="6.39384">
        <ele>1681</ele>
        <time>2022-08-09T14:14:09Z</time>
      </trkpt>
      <trkpt lat="45.45878" lon="6.39394">
        <ele>1679</ele>
        <time>2022-08-09T14:14:19Z</time>
      </trkpt>
      <trkpt lat="45.45873" lon="6.3941">
        <ele>1675</ele>
        <time>2022-08-09T14:14:39Z</time>
      </trkpt>
      <trkpt lat="45.45873" lon="6.39419">
        <ele>1673</ele>
        <time>2022-08-09T14:14:49Z</time>
      </trkpt>
      <trkpt lat="45.4587" lon="6.39443">
        <ele>1667</ele>
        <time>2022-08-09T14:15:19Z</time>
      </trkpt>
      <trkpt lat="45.45869" lon="6.39452">
        <ele>1664</ele>
        <time>2022-08-09T14:15:29Z</time>
      </trkpt>
      <trkpt lat="45.45867" lon="6.39458">
        <ele>1663</ele>
        <time>2022-08-09T14:15:39Z</time>
      </trkpt>
      <trkpt lat="45.45867" lon="6.39469">
        <ele>1660</ele>
        <time>2022-08-09T14:15:49Z</time>
      </trkpt>
      <trkpt lat="45.4586" lon="6.39498">
        <ele>1653</ele>
        <time>2022-08-09T14:16:21Z</time>
      </trkpt>
      <trkpt lat="45.45858" lon="6.39508">
        <ele>1651</ele>
        <time>2022-08-09T14:16:31Z</time>
      </trkpt>
      <trkpt lat="45.45855" lon="6.39525">
        <ele>1646</ele>
        <time>2022-08-09T14:16:51Z</time>
      </trkpt>
      <trkpt lat="45.45851" lon="6.39532">
        <ele>1643</ele>
        <time>2022-08-09T14:17:01Z</time>
      </trkpt>
      <trkpt lat="45.4585" lon="6.39538">
        <ele>1641</ele>
        <time>2022-08-09T14:17:11Z</time>
      </trkpt>
      <trkpt lat="45.45847" lon="6.39546">
        <ele>1639</ele>
        <time>2022-08-09T14:17:31Z</time>
      </trkpt>
      <trkpt lat="45.45846" lon="6.39554">
        <ele>1637</ele>
        <time>2022-08-09T14:17:41Z</time>
      </trkpt>
      <trkpt lat="45.45845" lon="6.39563">
        <ele>1635</ele>
        <time>2022-08-09T14:17:51Z</time>
      </trkpt>
      <trkpt lat="45.4584" lon="6.39593">
        <ele>1628</ele>
        <time>2022-08-09T14:18:24Z</time>
      </trkpt>
      <trkpt lat="45.45836" lon="6.39602">
        <ele>1625</ele>
        <time>2022-08-09T14:18:34Z</time>
      </trkpt>
      <trkpt lat="45.45832" lon="6.39645">
        <ele>1616</ele>
        <time>2022-08-09T14:19:12Z</time>
      </trkpt>
      <trkpt lat="45.45832" lon="6.39652">
        <ele>1615</ele>
        <time>2022-08-09T14:19:19Z</time>
      </trkpt>
      <trkpt lat="45.45829" lon="6.39661">
        <ele>1613</ele>
        <time>2022-08-09T14:19:29Z</time>
      </trkpt>
      <trkpt lat="45.45829" lon="6.39671">
        <ele>1611</ele>
        <time>2022-08-09T14:19:49Z</time>
      </trkpt>
      <trkpt lat="45.45826" lon="6.39676">
        <ele>1609</ele>
        <time>2022-08-09T14:20:05Z</time>
      </trkpt>
      <trkpt lat="45.4582" lon="6.39678">
        <ele>1607</ele>
        <time>2022-08-09T14:20:14Z</time>
      </trkpt>
      <trkpt lat="45.45814" lon="6.39686">
        <ele>1606</ele>
        <time>2022-08-09T14:21:37Z</time>
      </trkpt>
      <trkpt lat="45.45819" lon="6.39693">
        <ele>1606</ele>
        <time>2022-08-09T14:21:49Z</time>
      </trkpt>
      <trkpt lat="45.45848" lon="6.39737">
        <ele>1605</ele>
        <time>2022-08-09T14:22:03Z</time>
      </trkpt>
    </trkseg>
  </trk>
  <rte>
    <name><![CDATA[4 avr. 2019 à 23:11:12]]></name>
    <cmt><![CDATA[4 avr. 2019 à 23:11:12]]></cmt>
    <desc><![CDATA[{DC1}Heure de fin	: 
Durée totale	: 0h00:00
Moyenne globale	: -
Pente moyenne	: 0.00 %
Aire incluse	: 7.4932 ha
Détails par segments
distance  | durée    | vit.moy. | vit.max. | déniv. + | déniv -
   km     | hh:mn:ss |   km/h   |   km/h   |    m     |    m
     0.81 | 00:00:00 |      0.0 |      0.0 |        0 |        0{DC2}]]></desc>
      <rtept lat="45.60077" lon="6.18221">
        <ele>1608.6</ele>
      </rtept>
      <rtept lat="45.59468" lon="6.1822">
        <ele>1760.9</ele>
      </rtept>
      <rtept lat="45.59468" lon="6.1822">
        <ele>1760.9</ele>
      </rtept>
    </rte>
  <rte>
    <name><![CDATA[10 févr. 2019 à 15:16:12]]></name>
    <cmt><![CDATA[10 févr. 2019 à 15:16:12]]></cmt>
    <desc><![CDATA[{DC1}Heure de fin	: 00:09:21
Durée totale	: -17690439h43:48
Moyenne globale	: -
Pente moyenne	: 7.00 %
Aire incluse	: 221.0936 ha
Détails par segments
distance  | durée    | vit.moy. | vit.max. | déniv. + | déniv -
   km     | hh:mn:ss |   km/h   |   km/h   |    m     |    m
     7.48 | 00:00:00 |      0.0 |      0.0 |        0 |        0{DC2}]]></desc>
      <rtept lat="45.55203" lon="5.93805">
        <ele>376</ele>
      </rtept>
      <rtept lat="45.55177" lon="5.93873">
        <ele>369</ele>
      </rtept>
      <rtept lat="45.55176" lon="5.93942">
        <ele>367</ele>
      </rtept>
      <rtept lat="45.55105" lon="5.93942">
        <ele>367</ele>
      </rtept>
      <rtept lat="45.54993" lon="5.93908">
        <ele>371</ele>
      </rtept>
      <rtept lat="45.54929" lon="5.94099">
        <ele>370</ele>
      </rtept>
      <rtept lat="45.54908" lon="5.94204">
        <ele>367</ele>
      </rtept>
      <rtept lat="45.54991" lon="5.94287">
        <ele>365</ele>
      </rtept>
      <rtept lat="45.5506" lon="5.94384">
        <ele>361</ele>
      </rtept>
      <rtept lat="45.55147" lon="5.94384">
        <ele>357</ele>
      </rtept>
      <rtept lat="45.55129" lon="5.94607">
        <ele>358</ele>
      </rtept>
      <rtept lat="45.55029" lon="5.94809">
        <ele>355</ele>
      </rtept>
      <rtept lat="45.54884" lon="5.94886">
        <ele>346</ele>
      </rtept>
      <rtept lat="45.5477" lon="5.94931">
        <ele>342</ele>
      </rtept>
      <rtept lat="45.5468" lon="5.95004">
        <ele>339</ele>
      </rtept>
      <rtept lat="45.54596" lon="5.95133">
        <ele>340</ele>
      </rtept>
      <rtept lat="45.54446" lon="5.95195">
        <ele>343</ele>
      </rtept>
      <rtept lat="45.543" lon="5.95262">
        <ele>344</ele>
      </rtept>
      <rtept lat="45.54156" lon="5.95212">
        <ele>337</ele>
      </rtept>
      <rtept lat="45.54041" lon="5.95204">
        <ele>338</ele>
      </rtept>
      <rtept lat="45.53917" lon="5.95141">
        <ele>343</ele>
      </rtept>
      <rtept lat="45.53844" lon="5.95135">
        <ele>347</ele>
      </rtept>
      <rtept lat="45.53765" lon="5.9503">
        <ele>349</ele>
      </rtept>
      <rtept lat="45.5381" lon="5.94993">
        <ele>352</ele>
      </rtept>
      <rtept lat="45.53781" lon="5.94901">
        <ele>358</ele>
      </rtept>
      <rtept lat="45.53711" lon="5.94845">
        <ele>365</ele>
      </rtept>
      <rtept lat="45.53702" lon="5.94764">
        <ele>369</ele>
      </rtept>
      <rtept lat="45.53817" lon="5.94807">
        <ele>376</ele>
      </rtept>
      <rtept lat="45.53865" lon="5.94633">
        <ele>389</ele>
      </rtept>
      <rtept lat="45.53778" lon="5.94491">
        <ele>408</ele>
      </rtept>
      <rtept lat="45.53757" lon="5.94371">
        <ele>425</ele>
      </rtept>
      <rtept lat="45.53775" lon="5.94279">
        <ele>434</ele>
      </rtept>
      <rtept lat="45.53726" lon="5.94227">
        <ele>442</ele>
      </rtept>
      <rtept lat="45.53572" lon="5.94146">
        <ele>468</ele>
      </rtept>
      <rtept lat="45.53664" lon="5.94039">
        <ele>483</ele>
      </rtept>
      <rtept lat="45.53532" lon="5.93983">
        <ele>505</ele>
      </rtept>
      <rtept lat="45.53416" lon="5.93985">
        <ele>516</ele>
      </rtept>
      <rtept lat="45.5355" lon="5.93869">
        <ele>532</ele>
      </rtept>
      <rtept lat="45.5359" lon="5.93845">
        <ele>537</ele>
      </rtept>
      <rtept lat="45.5355" lon="5.93802">
        <ele>544</ele>
      </rtept>
      <rtept lat="45.53724" lon="5.93554">
        <ele>587</ele>
      </rtept>
      <rtept lat="45.53691" lon="5.93339">
        <ele>592</ele>
      </rtept>
      <rtept lat="45.5376" lon="5.93178">
        <ele>575</ele>
      </rtept>
      <rtept lat="45.53843" lon="5.93069">
        <ele>555</ele>
      </rtept>
      <rtept lat="45.53939" lon="5.93157">
        <ele>541</ele>
      </rtept>
      <rtept lat="45.54068" lon="5.93234">
        <ele>522</ele>
      </rtept>
      <rtept lat="45.54219" lon="5.93247">
        <ele>514</ele>
      </rtept>
      <rtept lat="45.54355" lon="5.93232">
        <ele>512</ele>
      </rtept>
      <rtept lat="45.54489" lon="5.9326">
        <ele>508</ele>
      </rtept>
      <rtept lat="45.54636" lon="5.93249">
        <ele>510</ele>
      </rtept>
      <rtept lat="45.54758" lon="5.93249">
        <ele>510</ele>
      </rtept>
      <rtept lat="45.54818" lon="5.93298">
        <ele>507</ele>
      </rtept>
      <rtept lat="45.54796" lon="5.93418">
        <ele>496</ele>
      </rtept>
      <rtept lat="45.5491" lon="5.93433">
        <ele>483</ele>
      </rtept>
      <rtept lat="45.55126" lon="5.9341">
        <ele>463</ele>
      </rtept>
      <rtept lat="45.55256" lon="5.93453">
        <ele>444</ele>
      </rtept>
      <rtept lat="45.55329" lon="5.93558">
        <ele>430</ele>
      </rtept>
      <rtept lat="45.55222" lon="5.93642">
        <ele>415</ele>
      </rtept>
      <rtept lat="45.55195" lon="5.93811">
        <ele>375</ele>
      </rtept>
    </rte>
  <rte>
    <name><![CDATA[10 févr. 2019 à 15:15:48]]></name>
    <cmt><![CDATA[10 févr. 2019 à 15:15:48]]></cmt>
    <desc><![CDATA[{DC1}Heure de fin	: 00:09:21
Durée totale	: -17690439h44:12
Moyenne globale	: -
Pente moyenne	: nan %
Aire incluse	: 0.0000 ha
Détails par segments
distance  | durée    | vit.moy. | vit.max. | déniv. + | déniv -
   km     | hh:mn:ss |   km/h   |   km/h   |    m     |    m
     0.00 | 00:00:00 |      0.0 |      0.0 |        0 |        0{DC2}]]></desc>
      <rtept lat="45.5175" lon="5.93483">
        <ele>732.3</ele>
      </rtept>
    </rte>
  <rte>
    <name><![CDATA[10 févr. 2019 à 15:06:08]]></name>
    <cmt><![CDATA[10 févr. 2019 à 15:06:08]]></cmt>
    <desc><![CDATA[{DC1}Heure de fin	: 
Durée totale	: 0h00:00
Moyenne globale	: -
Pente moyenne	: 8.03 %
Aire incluse	: 204.0794 ha
Détails par segments
distance  | durée    | vit.moy. | vit.max. | déniv. + | déniv -
   km     | hh:mn:ss |   km/h   |   km/h   |    m     |    m
    12.88 | 00:00:00 |      0.0 |      0.0 |        0 |        0{DC2}]]></desc>
      <rtept lat="45.5509" lon="5.9394">
        <ele>368</ele>
      </rtept>
      <rtept lat="45.55217" lon="5.93791">
        <ele>377</ele>
      </rtept>
    </rte>
  <rte>
    <name><![CDATA[10 févr. 2019 à 14:22:06]]></name>
    <cmt><![CDATA[10 févr. 2019 à 14:22:06]]></cmt>
    <desc><![CDATA[{DC1}Heure de fin	: 00:09:21
Durée totale	: -17690438h37:54
Moyenne globale	: -
Pente moyenne	: 5.62 %
Aire incluse	: 5.7967 ha
Détails par segments
distance  | durée    | vit.moy. | vit.max. | déniv. + | déniv -
   km     | hh:mn:ss |   km/h   |   km/h   |    m     |    m
     3.30 | 00:00:00 |      0.0 |      0.0 |        0 |        0{DC2}]]></desc>
      <rtept lat="45.55169" lon="5.93089">
        <ele>415</ele>
      </rtept>
      <rtept lat="45.5518" lon="5.93905">
        <ele>366</ele>
      </rtept>
    </rte>
  <rte>
    <name><![CDATA[10 févr. 2019 à 09:50:45]]></name>
    <cmt><![CDATA[10 févr. 2019 à 09:50:45]]></cmt>
    <desc><![CDATA[{DC1}Heure de fin	: 00:09:21
Durée totale	: -17690433h09:14
Moyenne globale	: -
Pente moyenne	: 0.00 %
Aire incluse	: 50.7119 ha
Détails par segments
distance  | durée    | vit.moy. | vit.max. | déniv. + | déniv -
   km     | hh:mn:ss |   km/h   |   km/h   |    m     |    m
     4.33 | 00:00:00 |      0.0 |      0.0 |        0 |        0{DC2}]]></desc>
      <rtept lat="45.5503" lon="5.93918">
        <ele>373.6</ele>
      </rtept>
      <rtept lat="45.55191" lon="5.93893">
        <ele>366.7</ele>
      </rtept>
    </rte>
  <rte>
    <name><![CDATA[10 févr. 2019 à 09:07:08]]></name>
    <cmt><![CDATA[10 févr. 2019 à 09:07:08]]></cmt>
    <desc><![CDATA[{DC1}Heure de fin	: 00:09:21
Durée totale	: -17690433h52:52
Moyenne globale	: -
Pente moyenne	: nan %
Aire incluse	: 0.0000 ha
Détails par segments
distance  | durée    | vit.moy. | vit.max. | déniv. + | déniv -
   km     | hh:mn:ss |   km/h   |   km/h   |    m     |    m
     0.00 | 00:00:00 |      0.0 |      0.0 |        0 |        0{DC2}]]></desc>
      <rtept lat="45.55102" lon="5.93919">
        <ele>370.1</ele>
      </rtept>
    </rte>
  <rte>
    <name><![CDATA[10 févr. 2019 à 09:02:25]]></name>
    <cmt><![CDATA[10 févr. 2019 à 09:02:25]]></cmt>
    <desc><![CDATA[{DC1}Heure de fin	: 00:09:21
Durée totale	: -17690433h57:35
Moyenne globale	: -
Pente moyenne	: nan %
Aire incluse	: 0.0000 ha
Détails par segments
distance  | durée    | vit.moy. | vit.max. | déniv. + | déniv -
   km     | hh:mn:ss |   km/h   |   km/h   |    m     |    m
     0.00 | 00:00:00 |      0.0 |      0.0 |        0 |        0{DC2}]]></desc>
      <rtept lat="45.55207" lon="5.93813">
        <ele>375.2</ele>
      </rtept>
    </rte>
  <rte>
    <name><![CDATA[10 févr. 2019 à 09:00:27]]></name>
    <cmt><![CDATA[10 févr. 2019 à 09:00:27]]></cmt>
    <desc><![CDATA[{DC1}Heure de fin	: 00:09:21
Durée totale	: -17690433h59:32
Moyenne globale	: -
Pente moyenne	: nan %
Aire incluse	: 0.0000 ha
Détails par segments
distance  | durée    | vit.moy. | vit.max. | déniv. + | déniv -
   km     | hh:mn:ss |   km/h   |   km/h   |    m     |    m
     0.00 | 00:00:00 |      0.0 |      0.0 |        0 |        0{DC2}]]></desc>
      <rtept lat="45.55244" lon="5.93858">
        <ele>366.6</ele>
      </rtept>
    </rte>
</gpx>